<?xml version="1.0" encoding="UTF-8" standalone="no" ?>
<gpx xmlns="http://www.topografix.com/GPX/1/1" xmlns:xsi="http://www.w3.org/2001/XMLSchema-instance" xsi:schemaLocation="http://www.topografix.com/GPX/1/1 http://www.topografix.com/GPX/1/1/gpx.xsd" version="1.1" creator="VisuGPX - https://www.visugpx.com">
  <metadata>
    <name>RSPFY-Château de Rambouillet</name>
    <desc><![CDATA[marche nordique dans le parc du château de Rambouillet.]]></desc>
  </metadata>
  <trk>
    <name><![CDATA[2022-04-14 08:59]]></name>
    <desc><![CDATA[<p>Heure de départ: 08:59 14 avr. 2022<br/>Heure d'arrivée: 11:20 14 avr. 2022<br/>Distance: 10,4 km (02:21)<br/>Temps déplacement: 01:44<br/>Vitesse moyenne: 4,43 km/h<br/>Vitesse moyenne mouv.: 5,97 km/h<br/>Vitesse Max.: 9,17 km/h<br/>Altitude minimale: 134 m<br/>Altitude maximale: 178 m<br/>Vitesse de montée: 195 m/h<br/>Vitesse de descente: -227,8 m/h<br/>Gain d'altitude: 236 m<br/>Perte d'altitude: -248 m<br/>Temps de montée: 01:12<br/>Temps de descente: 01:05<br/></p><hr align="center" width="480" style="height: 2px; width: 517px"/>]]></desc>
    <trkseg>
      <trkpt lat="48.65779" lon="1.82035">
        <ele>151.3</ele>
        <time>2022-04-14T06:59:31Z</time>
      </trkpt>
      <trkpt lat="48.6577" lon="1.8204">
        <ele>151.3</ele>
        <time>2022-04-14T07:06:42Z</time>
      </trkpt>
      <trkpt lat="48.65777" lon="1.82049">
        <ele>151.7</ele>
        <time>2022-04-14T07:07:00Z</time>
      </trkpt>
      <trkpt lat="48.65786" lon="1.8205">
        <ele>152.1</ele>
        <time>2022-04-14T07:07:11Z</time>
      </trkpt>
      <trkpt lat="48.65793" lon="1.8206">
        <ele>152.5</ele>
        <time>2022-04-14T07:07:38Z</time>
      </trkpt>
      <trkpt lat="48.65799" lon="1.82071">
        <ele>153.1</ele>
        <time>2022-04-14T07:07:48Z</time>
      </trkpt>
      <trkpt lat="48.65809" lon="1.82074">
        <ele>153.8</ele>
        <time>2022-04-14T07:07:56Z</time>
      </trkpt>
      <trkpt lat="48.65819" lon="1.82071">
        <ele>154</ele>
        <time>2022-04-14T07:08:04Z</time>
      </trkpt>
      <trkpt lat="48.65827" lon="1.82061">
        <ele>153.9</ele>
        <time>2022-04-14T07:08:12Z</time>
      </trkpt>
      <trkpt lat="48.65833" lon="1.82051">
        <ele>153.8</ele>
        <time>2022-04-14T07:08:19Z</time>
      </trkpt>
      <trkpt lat="48.65842" lon="1.82047">
        <ele>154</ele>
        <time>2022-04-14T07:08:26Z</time>
      </trkpt>
      <trkpt lat="48.65852" lon="1.82047">
        <ele>154.4</ele>
        <time>2022-04-14T07:08:35Z</time>
      </trkpt>
      <trkpt lat="48.6586" lon="1.82052">
        <ele>154.8</ele>
        <time>2022-04-14T07:08:42Z</time>
      </trkpt>
      <trkpt lat="48.65868" lon="1.82061">
        <ele>155.4</ele>
        <time>2022-04-14T07:08:48Z</time>
      </trkpt>
      <trkpt lat="48.65874" lon="1.82071">
        <ele>156</ele>
        <time>2022-04-14T07:08:54Z</time>
      </trkpt>
      <trkpt lat="48.65882" lon="1.8208">
        <ele>156.6</ele>
        <time>2022-04-14T07:09:03Z</time>
      </trkpt>
      <trkpt lat="48.65889" lon="1.8209">
        <ele>157.5</ele>
        <time>2022-04-14T07:09:10Z</time>
      </trkpt>
      <trkpt lat="48.65895" lon="1.82101">
        <ele>158.1</ele>
        <time>2022-04-14T07:09:20Z</time>
      </trkpt>
      <trkpt lat="48.65903" lon="1.8211">
        <ele>158.4</ele>
        <time>2022-04-14T07:09:27Z</time>
      </trkpt>
      <trkpt lat="48.65911" lon="1.82118">
        <ele>158.9</ele>
        <time>2022-04-14T07:09:34Z</time>
      </trkpt>
      <trkpt lat="48.65919" lon="1.82128">
        <ele>159.9</ele>
        <time>2022-04-14T07:09:43Z</time>
      </trkpt>
      <trkpt lat="48.65925" lon="1.82139">
        <ele>161.3</ele>
        <time>2022-04-14T07:09:50Z</time>
      </trkpt>
      <trkpt lat="48.65933" lon="1.82146">
        <ele>161.8</ele>
        <time>2022-04-14T07:09:57Z</time>
      </trkpt>
      <trkpt lat="48.65942" lon="1.82153">
        <ele>162.4</ele>
        <time>2022-04-14T07:10:05Z</time>
      </trkpt>
      <trkpt lat="48.65951" lon="1.82158">
        <ele>163</ele>
        <time>2022-04-14T07:10:11Z</time>
      </trkpt>
      <trkpt lat="48.65961" lon="1.82163">
        <ele>163.5</ele>
        <time>2022-04-14T07:10:18Z</time>
      </trkpt>
      <trkpt lat="48.65969" lon="1.82172">
        <ele>163.9</ele>
        <time>2022-04-14T07:10:25Z</time>
      </trkpt>
      <trkpt lat="48.65977" lon="1.82182">
        <ele>164.2</ele>
        <time>2022-04-14T07:10:32Z</time>
      </trkpt>
      <trkpt lat="48.65985" lon="1.82189">
        <ele>164.5</ele>
        <time>2022-04-14T07:10:38Z</time>
      </trkpt>
      <trkpt lat="48.65994" lon="1.82197">
        <ele>164.7</ele>
        <time>2022-04-14T07:10:43Z</time>
      </trkpt>
      <trkpt lat="48.66002" lon="1.82206">
        <ele>164.6</ele>
        <time>2022-04-14T07:10:49Z</time>
      </trkpt>
      <trkpt lat="48.6601" lon="1.82212">
        <ele>164.4</ele>
        <time>2022-04-14T07:10:55Z</time>
      </trkpt>
      <trkpt lat="48.6602" lon="1.82218">
        <ele>164.2</ele>
        <time>2022-04-14T07:11:03Z</time>
      </trkpt>
      <trkpt lat="48.66028" lon="1.82224">
        <ele>164</ele>
        <time>2022-04-14T07:11:08Z</time>
      </trkpt>
      <trkpt lat="48.66037" lon="1.82231">
        <ele>164.2</ele>
        <time>2022-04-14T07:11:15Z</time>
      </trkpt>
      <trkpt lat="48.66046" lon="1.82237">
        <ele>164.3</ele>
        <time>2022-04-14T07:11:21Z</time>
      </trkpt>
      <trkpt lat="48.66055" lon="1.82239">
        <ele>164.4</ele>
        <time>2022-04-14T07:11:28Z</time>
      </trkpt>
      <trkpt lat="48.66064" lon="1.82242">
        <ele>164.5</ele>
        <time>2022-04-14T07:11:37Z</time>
      </trkpt>
      <trkpt lat="48.66072" lon="1.82252">
        <ele>164.6</ele>
        <time>2022-04-14T07:11:47Z</time>
      </trkpt>
      <trkpt lat="48.66078" lon="1.82263">
        <ele>164.8</ele>
        <time>2022-04-14T07:11:55Z</time>
      </trkpt>
      <trkpt lat="48.66085" lon="1.82272">
        <ele>165</ele>
        <time>2022-04-14T07:12:04Z</time>
      </trkpt>
      <trkpt lat="48.6609" lon="1.82285">
        <ele>165</ele>
        <time>2022-04-14T07:12:14Z</time>
      </trkpt>
      <trkpt lat="48.66099" lon="1.8229">
        <ele>165</ele>
        <time>2022-04-14T07:12:23Z</time>
      </trkpt>
      <trkpt lat="48.66108" lon="1.8229">
        <ele>165</ele>
        <time>2022-04-14T07:13:04Z</time>
      </trkpt>
      <trkpt lat="48.66113" lon="1.82278">
        <ele>165</ele>
        <time>2022-04-14T07:13:12Z</time>
      </trkpt>
      <trkpt lat="48.6612" lon="1.82267">
        <ele>165.1</ele>
        <time>2022-04-14T07:13:20Z</time>
      </trkpt>
      <trkpt lat="48.66128" lon="1.82258">
        <ele>165.4</ele>
        <time>2022-04-14T07:13:28Z</time>
      </trkpt>
      <trkpt lat="48.66133" lon="1.82246">
        <ele>165.8</ele>
        <time>2022-04-14T07:13:35Z</time>
      </trkpt>
      <trkpt lat="48.66138" lon="1.82233">
        <ele>166</ele>
        <time>2022-04-14T07:13:42Z</time>
      </trkpt>
      <trkpt lat="48.66142" lon="1.82219">
        <ele>166</ele>
        <time>2022-04-14T07:13:48Z</time>
      </trkpt>
      <trkpt lat="48.66146" lon="1.82206">
        <ele>166</ele>
        <time>2022-04-14T07:13:53Z</time>
      </trkpt>
      <trkpt lat="48.6615" lon="1.82192">
        <ele>166</ele>
        <time>2022-04-14T07:13:58Z</time>
      </trkpt>
      <trkpt lat="48.66154" lon="1.8218">
        <ele>166</ele>
        <time>2022-04-14T07:14:03Z</time>
      </trkpt>
      <trkpt lat="48.6616" lon="1.82169">
        <ele>166</ele>
        <time>2022-04-14T07:14:10Z</time>
      </trkpt>
      <trkpt lat="48.66164" lon="1.82155">
        <ele>166</ele>
        <time>2022-04-14T07:14:17Z</time>
      </trkpt>
      <trkpt lat="48.66167" lon="1.82142">
        <ele>166</ele>
        <time>2022-04-14T07:14:22Z</time>
      </trkpt>
      <trkpt lat="48.66173" lon="1.82131">
        <ele>166</ele>
        <time>2022-04-14T07:14:28Z</time>
      </trkpt>
      <trkpt lat="48.66179" lon="1.82117">
        <ele>166</ele>
        <time>2022-04-14T07:14:35Z</time>
      </trkpt>
      <trkpt lat="48.66185" lon="1.82104">
        <ele>165.8</ele>
        <time>2022-04-14T07:14:41Z</time>
      </trkpt>
      <trkpt lat="48.66189" lon="1.8209">
        <ele>165.4</ele>
        <time>2022-04-14T07:14:47Z</time>
      </trkpt>
      <trkpt lat="48.66193" lon="1.82078">
        <ele>165</ele>
        <time>2022-04-14T07:14:54Z</time>
      </trkpt>
      <trkpt lat="48.662" lon="1.82065">
        <ele>164.8</ele>
        <time>2022-04-14T07:15:02Z</time>
      </trkpt>
      <trkpt lat="48.66204" lon="1.82053">
        <ele>164.7</ele>
        <time>2022-04-14T07:15:09Z</time>
      </trkpt>
      <trkpt lat="48.66209" lon="1.8204">
        <ele>164.8</ele>
        <time>2022-04-14T07:15:16Z</time>
      </trkpt>
      <trkpt lat="48.66214" lon="1.82027">
        <ele>165</ele>
        <time>2022-04-14T07:15:24Z</time>
      </trkpt>
      <trkpt lat="48.66222" lon="1.82018">
        <ele>165</ele>
        <time>2022-04-14T07:15:34Z</time>
      </trkpt>
      <trkpt lat="48.66229" lon="1.82007">
        <ele>164.9</ele>
        <time>2022-04-14T07:15:43Z</time>
      </trkpt>
      <trkpt lat="48.66236" lon="1.81998">
        <ele>165</ele>
        <time>2022-04-14T07:16:20Z</time>
      </trkpt>
      <trkpt lat="48.6624" lon="1.81985">
        <ele>165</ele>
        <time>2022-04-14T07:16:28Z</time>
      </trkpt>
      <trkpt lat="48.66244" lon="1.81972">
        <ele>165</ele>
        <time>2022-04-14T07:16:36Z</time>
      </trkpt>
      <trkpt lat="48.66249" lon="1.8196">
        <ele>165.4</ele>
        <time>2022-04-14T07:16:43Z</time>
      </trkpt>
      <trkpt lat="48.66254" lon="1.81946">
        <ele>165.9</ele>
        <time>2022-04-14T07:16:55Z</time>
      </trkpt>
      <trkpt lat="48.6626" lon="1.81936">
        <ele>166</ele>
        <time>2022-04-14T07:17:05Z</time>
      </trkpt>
      <trkpt lat="48.66268" lon="1.81928">
        <ele>166</ele>
        <time>2022-04-14T07:17:14Z</time>
      </trkpt>
      <trkpt lat="48.66276" lon="1.81918">
        <ele>166</ele>
        <time>2022-04-14T07:17:23Z</time>
      </trkpt>
      <trkpt lat="48.66279" lon="1.81903">
        <ele>166</ele>
        <time>2022-04-14T07:17:30Z</time>
      </trkpt>
      <trkpt lat="48.66285" lon="1.81891">
        <ele>166.2</ele>
        <time>2022-04-14T07:17:38Z</time>
      </trkpt>
      <trkpt lat="48.6629" lon="1.81877">
        <ele>166.7</ele>
        <time>2022-04-14T07:17:45Z</time>
      </trkpt>
      <trkpt lat="48.66295" lon="1.81866">
        <ele>166.9</ele>
        <time>2022-04-14T07:17:53Z</time>
      </trkpt>
      <trkpt lat="48.66301" lon="1.81853">
        <ele>167</ele>
        <time>2022-04-14T07:18:02Z</time>
      </trkpt>
      <trkpt lat="48.66306" lon="1.81842">
        <ele>167</ele>
        <time>2022-04-14T07:18:09Z</time>
      </trkpt>
      <trkpt lat="48.66312" lon="1.8183">
        <ele>167.3</ele>
        <time>2022-04-14T07:18:17Z</time>
      </trkpt>
      <trkpt lat="48.66317" lon="1.81816">
        <ele>167.8</ele>
        <time>2022-04-14T07:18:24Z</time>
      </trkpt>
      <trkpt lat="48.66322" lon="1.81802">
        <ele>168</ele>
        <time>2022-04-14T07:18:31Z</time>
      </trkpt>
      <trkpt lat="48.66327" lon="1.81789">
        <ele>168</ele>
        <time>2022-04-14T07:18:37Z</time>
      </trkpt>
      <trkpt lat="48.66332" lon="1.81778">
        <ele>168</ele>
        <time>2022-04-14T07:18:44Z</time>
      </trkpt>
      <trkpt lat="48.66338" lon="1.81765">
        <ele>168.5</ele>
        <time>2022-04-14T07:18:52Z</time>
      </trkpt>
      <trkpt lat="48.66343" lon="1.81753">
        <ele>168.9</ele>
        <time>2022-04-14T07:18:58Z</time>
      </trkpt>
      <trkpt lat="48.66348" lon="1.8174">
        <ele>169.2</ele>
        <time>2022-04-14T07:19:05Z</time>
      </trkpt>
      <trkpt lat="48.66352" lon="1.81727">
        <ele>169.6</ele>
        <time>2022-04-14T07:19:12Z</time>
      </trkpt>
      <trkpt lat="48.66355" lon="1.81714">
        <ele>169.8</ele>
        <time>2022-04-14T07:19:17Z</time>
      </trkpt>
      <trkpt lat="48.66358" lon="1.817">
        <ele>169.9</ele>
        <time>2022-04-14T07:19:24Z</time>
      </trkpt>
      <trkpt lat="48.66353" lon="1.81688">
        <ele>169.8</ele>
        <time>2022-04-14T07:20:42Z</time>
      </trkpt>
      <trkpt lat="48.66345" lon="1.81678">
        <ele>169.8</ele>
        <time>2022-04-14T07:20:49Z</time>
      </trkpt>
      <trkpt lat="48.66336" lon="1.81671">
        <ele>169.9</ele>
        <time>2022-04-14T07:20:56Z</time>
      </trkpt>
      <trkpt lat="48.66329" lon="1.81663">
        <ele>169.9</ele>
        <time>2022-04-14T07:21:02Z</time>
      </trkpt>
      <trkpt lat="48.66321" lon="1.81658">
        <ele>169.7</ele>
        <time>2022-04-14T07:21:08Z</time>
      </trkpt>
      <trkpt lat="48.66312" lon="1.81648">
        <ele>169.8</ele>
        <time>2022-04-14T07:21:15Z</time>
      </trkpt>
      <trkpt lat="48.66304" lon="1.81639">
        <ele>170</ele>
        <time>2022-04-14T07:21:22Z</time>
      </trkpt>
      <trkpt lat="48.66297" lon="1.8163">
        <ele>170</ele>
        <time>2022-04-14T07:21:28Z</time>
      </trkpt>
      <trkpt lat="48.66289" lon="1.81621">
        <ele>170</ele>
        <time>2022-04-14T07:21:34Z</time>
      </trkpt>
      <trkpt lat="48.66282" lon="1.81611">
        <ele>170</ele>
        <time>2022-04-14T07:21:40Z</time>
      </trkpt>
      <trkpt lat="48.66275" lon="1.81603">
        <ele>170</ele>
        <time>2022-04-14T07:21:46Z</time>
      </trkpt>
      <trkpt lat="48.66265" lon="1.81599">
        <ele>170</ele>
        <time>2022-04-14T07:21:53Z</time>
      </trkpt>
      <trkpt lat="48.66256" lon="1.81597">
        <ele>170</ele>
        <time>2022-04-14T07:22:00Z</time>
      </trkpt>
      <trkpt lat="48.66248" lon="1.81589">
        <ele>170</ele>
        <time>2022-04-14T07:22:06Z</time>
      </trkpt>
      <trkpt lat="48.66242" lon="1.81578">
        <ele>170</ele>
        <time>2022-04-14T07:22:12Z</time>
      </trkpt>
      <trkpt lat="48.66236" lon="1.81566">
        <ele>170</ele>
        <time>2022-04-14T07:22:21Z</time>
      </trkpt>
      <trkpt lat="48.66226" lon="1.81567">
        <ele>170</ele>
        <time>2022-04-14T07:22:30Z</time>
      </trkpt>
      <trkpt lat="48.66216" lon="1.81567">
        <ele>169.8</ele>
        <time>2022-04-14T07:22:36Z</time>
      </trkpt>
      <trkpt lat="48.66207" lon="1.81567">
        <ele>169.5</ele>
        <time>2022-04-14T07:22:42Z</time>
      </trkpt>
      <trkpt lat="48.66198" lon="1.81568">
        <ele>169.1</ele>
        <time>2022-04-14T07:22:48Z</time>
      </trkpt>
      <trkpt lat="48.66189" lon="1.81567">
        <ele>169</ele>
        <time>2022-04-14T07:22:54Z</time>
      </trkpt>
      <trkpt lat="48.66179" lon="1.81569">
        <ele>169</ele>
        <time>2022-04-14T07:23:00Z</time>
      </trkpt>
      <trkpt lat="48.66169" lon="1.81568">
        <ele>169</ele>
        <time>2022-04-14T07:23:07Z</time>
      </trkpt>
      <trkpt lat="48.6616" lon="1.81569">
        <ele>169</ele>
        <time>2022-04-14T07:23:14Z</time>
      </trkpt>
      <trkpt lat="48.6615" lon="1.8157">
        <ele>169</ele>
        <time>2022-04-14T07:23:21Z</time>
      </trkpt>
      <trkpt lat="48.6614" lon="1.81572">
        <ele>169</ele>
        <time>2022-04-14T07:23:28Z</time>
      </trkpt>
      <trkpt lat="48.6613" lon="1.81572">
        <ele>168.9</ele>
        <time>2022-04-14T07:23:37Z</time>
      </trkpt>
      <trkpt lat="48.66122" lon="1.81578">
        <ele>168.9</ele>
        <time>2022-04-14T07:23:45Z</time>
      </trkpt>
      <trkpt lat="48.66113" lon="1.81581">
        <ele>168.9</ele>
        <time>2022-04-14T07:24:17Z</time>
      </trkpt>
      <trkpt lat="48.66104" lon="1.81573">
        <ele>168.5</ele>
        <time>2022-04-14T07:24:26Z</time>
      </trkpt>
      <trkpt lat="48.66094" lon="1.81574">
        <ele>168.3</ele>
        <time>2022-04-14T07:24:34Z</time>
      </trkpt>
      <trkpt lat="48.66085" lon="1.81574">
        <ele>168</ele>
        <time>2022-04-14T07:24:42Z</time>
      </trkpt>
      <trkpt lat="48.66075" lon="1.81576">
        <ele>167.9</ele>
        <time>2022-04-14T07:24:50Z</time>
      </trkpt>
      <trkpt lat="48.66066" lon="1.81576">
        <ele>167.8</ele>
        <time>2022-04-14T07:24:56Z</time>
      </trkpt>
      <trkpt lat="48.66056" lon="1.81578">
        <ele>167.8</ele>
        <time>2022-04-14T07:25:02Z</time>
      </trkpt>
      <trkpt lat="48.66046" lon="1.8158">
        <ele>167.6</ele>
        <time>2022-04-14T07:25:08Z</time>
      </trkpt>
      <trkpt lat="48.66036" lon="1.81582">
        <ele>167.3</ele>
        <time>2022-04-14T07:25:14Z</time>
      </trkpt>
      <trkpt lat="48.66026" lon="1.81584">
        <ele>167</ele>
        <time>2022-04-14T07:25:20Z</time>
      </trkpt>
      <trkpt lat="48.66016" lon="1.81586">
        <ele>167.1</ele>
        <time>2022-04-14T07:25:27Z</time>
      </trkpt>
      <trkpt lat="48.66007" lon="1.81588">
        <ele>167.2</ele>
        <time>2022-04-14T07:25:34Z</time>
      </trkpt>
      <trkpt lat="48.65997" lon="1.8159">
        <ele>167.2</ele>
        <time>2022-04-14T07:25:41Z</time>
      </trkpt>
      <trkpt lat="48.65987" lon="1.81591">
        <ele>167.2</ele>
        <time>2022-04-14T07:25:47Z</time>
      </trkpt>
      <trkpt lat="48.65977" lon="1.81591">
        <ele>167.1</ele>
        <time>2022-04-14T07:25:53Z</time>
      </trkpt>
      <trkpt lat="48.65967" lon="1.81593">
        <ele>166.8</ele>
        <time>2022-04-14T07:25:59Z</time>
      </trkpt>
      <trkpt lat="48.65957" lon="1.81593">
        <ele>166.4</ele>
        <time>2022-04-14T07:26:05Z</time>
      </trkpt>
      <trkpt lat="48.65947" lon="1.81595">
        <ele>166.1</ele>
        <time>2022-04-14T07:26:11Z</time>
      </trkpt>
      <trkpt lat="48.65938" lon="1.81595">
        <ele>165.8</ele>
        <time>2022-04-14T07:26:17Z</time>
      </trkpt>
      <trkpt lat="48.65929" lon="1.81595">
        <ele>165.4</ele>
        <time>2022-04-14T07:26:23Z</time>
      </trkpt>
      <trkpt lat="48.65919" lon="1.81597">
        <ele>165.1</ele>
        <time>2022-04-14T07:26:29Z</time>
      </trkpt>
      <trkpt lat="48.65909" lon="1.81598">
        <ele>164.6</ele>
        <time>2022-04-14T07:26:35Z</time>
      </trkpt>
      <trkpt lat="48.65899" lon="1.81598">
        <ele>164</ele>
        <time>2022-04-14T07:26:41Z</time>
      </trkpt>
      <trkpt lat="48.6589" lon="1.81599">
        <ele>163.5</ele>
        <time>2022-04-14T07:26:47Z</time>
      </trkpt>
      <trkpt lat="48.6588" lon="1.81601">
        <ele>162.8</ele>
        <time>2022-04-14T07:26:53Z</time>
      </trkpt>
      <trkpt lat="48.65871" lon="1.81602">
        <ele>162</ele>
        <time>2022-04-14T07:26:59Z</time>
      </trkpt>
      <trkpt lat="48.65862" lon="1.81603">
        <ele>161.3</ele>
        <time>2022-04-14T07:27:05Z</time>
      </trkpt>
      <trkpt lat="48.65852" lon="1.81604">
        <ele>160.6</ele>
        <time>2022-04-14T07:27:11Z</time>
      </trkpt>
      <trkpt lat="48.65842" lon="1.81606">
        <ele>159.8</ele>
        <time>2022-04-14T07:27:17Z</time>
      </trkpt>
      <trkpt lat="48.65833" lon="1.81608">
        <ele>159.1</ele>
        <time>2022-04-14T07:27:23Z</time>
      </trkpt>
      <trkpt lat="48.65823" lon="1.81609">
        <ele>158.3</ele>
        <time>2022-04-14T07:27:30Z</time>
      </trkpt>
      <trkpt lat="48.65813" lon="1.81609">
        <ele>157.6</ele>
        <time>2022-04-14T07:27:36Z</time>
      </trkpt>
      <trkpt lat="48.65804" lon="1.8161">
        <ele>156.9</ele>
        <time>2022-04-14T07:27:42Z</time>
      </trkpt>
      <trkpt lat="48.65794" lon="1.8161">
        <ele>156.6</ele>
        <time>2022-04-14T07:27:48Z</time>
      </trkpt>
      <trkpt lat="48.65785" lon="1.81611">
        <ele>156.3</ele>
        <time>2022-04-14T07:27:54Z</time>
      </trkpt>
      <trkpt lat="48.65776" lon="1.81612">
        <ele>155.8</ele>
        <time>2022-04-14T07:28:00Z</time>
      </trkpt>
      <trkpt lat="48.65766" lon="1.81613">
        <ele>155.4</ele>
        <time>2022-04-14T07:28:06Z</time>
      </trkpt>
      <trkpt lat="48.65757" lon="1.81615">
        <ele>155</ele>
        <time>2022-04-14T07:28:12Z</time>
      </trkpt>
      <trkpt lat="48.65748" lon="1.81616">
        <ele>154.6</ele>
        <time>2022-04-14T07:28:18Z</time>
      </trkpt>
      <trkpt lat="48.65739" lon="1.81616">
        <ele>154.7</ele>
        <time>2022-04-14T07:28:24Z</time>
      </trkpt>
      <trkpt lat="48.65729" lon="1.81617">
        <ele>154.7</ele>
        <time>2022-04-14T07:28:31Z</time>
      </trkpt>
      <trkpt lat="48.65719" lon="1.81618">
        <ele>154.9</ele>
        <time>2022-04-14T07:28:37Z</time>
      </trkpt>
      <trkpt lat="48.6571" lon="1.81619">
        <ele>155.3</ele>
        <time>2022-04-14T07:28:43Z</time>
      </trkpt>
      <trkpt lat="48.657" lon="1.81621">
        <ele>155.7</ele>
        <time>2022-04-14T07:28:49Z</time>
      </trkpt>
      <trkpt lat="48.6569" lon="1.81622">
        <ele>156.2</ele>
        <time>2022-04-14T07:28:55Z</time>
      </trkpt>
      <trkpt lat="48.6568" lon="1.81623">
        <ele>156.5</ele>
        <time>2022-04-14T07:29:01Z</time>
      </trkpt>
      <trkpt lat="48.65671" lon="1.81624">
        <ele>156.8</ele>
        <time>2022-04-14T07:29:07Z</time>
      </trkpt>
      <trkpt lat="48.65661" lon="1.81625">
        <ele>157.1</ele>
        <time>2022-04-14T07:29:13Z</time>
      </trkpt>
      <trkpt lat="48.65651" lon="1.81626">
        <ele>157.3</ele>
        <time>2022-04-14T07:29:19Z</time>
      </trkpt>
      <trkpt lat="48.65642" lon="1.81627">
        <ele>157.4</ele>
        <time>2022-04-14T07:29:25Z</time>
      </trkpt>
      <trkpt lat="48.65633" lon="1.81629">
        <ele>157.5</ele>
        <time>2022-04-14T07:29:31Z</time>
      </trkpt>
      <trkpt lat="48.65622" lon="1.81631">
        <ele>157.7</ele>
        <time>2022-04-14T07:29:38Z</time>
      </trkpt>
      <trkpt lat="48.65613" lon="1.81633">
        <ele>157.9</ele>
        <time>2022-04-14T07:29:44Z</time>
      </trkpt>
      <trkpt lat="48.65603" lon="1.81634">
        <ele>158.3</ele>
        <time>2022-04-14T07:29:51Z</time>
      </trkpt>
      <trkpt lat="48.65593" lon="1.81634">
        <ele>158.7</ele>
        <time>2022-04-14T07:29:58Z</time>
      </trkpt>
      <trkpt lat="48.65582" lon="1.81632">
        <ele>159</ele>
        <time>2022-04-14T07:30:05Z</time>
      </trkpt>
      <trkpt lat="48.65573" lon="1.81635">
        <ele>159.4</ele>
        <time>2022-04-14T07:30:11Z</time>
      </trkpt>
      <trkpt lat="48.65564" lon="1.81637">
        <ele>159.7</ele>
        <time>2022-04-14T07:30:17Z</time>
      </trkpt>
      <trkpt lat="48.65555" lon="1.81639">
        <ele>160</ele>
        <time>2022-04-14T07:30:23Z</time>
      </trkpt>
      <trkpt lat="48.65546" lon="1.8164">
        <ele>160.4</ele>
        <time>2022-04-14T07:30:29Z</time>
      </trkpt>
      <trkpt lat="48.65537" lon="1.81642">
        <ele>160.7</ele>
        <time>2022-04-14T07:30:35Z</time>
      </trkpt>
      <trkpt lat="48.65527" lon="1.81642">
        <ele>161</ele>
        <time>2022-04-14T07:30:41Z</time>
      </trkpt>
      <trkpt lat="48.65517" lon="1.81643">
        <ele>161.4</ele>
        <time>2022-04-14T07:30:47Z</time>
      </trkpt>
      <trkpt lat="48.65507" lon="1.81645">
        <ele>161.7</ele>
        <time>2022-04-14T07:30:53Z</time>
      </trkpt>
      <trkpt lat="48.65498" lon="1.81648">
        <ele>162</ele>
        <time>2022-04-14T07:30:59Z</time>
      </trkpt>
      <trkpt lat="48.65488" lon="1.81648">
        <ele>162</ele>
        <time>2022-04-14T07:31:06Z</time>
      </trkpt>
      <trkpt lat="48.65478" lon="1.81649">
        <ele>162</ele>
        <time>2022-04-14T07:31:13Z</time>
      </trkpt>
      <trkpt lat="48.65467" lon="1.81649">
        <ele>161.8</ele>
        <time>2022-04-14T07:31:20Z</time>
      </trkpt>
      <trkpt lat="48.65457" lon="1.81649">
        <ele>161.5</ele>
        <time>2022-04-14T07:31:27Z</time>
      </trkpt>
      <trkpt lat="48.65448" lon="1.81651">
        <ele>161.1</ele>
        <time>2022-04-14T07:31:34Z</time>
      </trkpt>
      <trkpt lat="48.65437" lon="1.81652">
        <ele>160.7</ele>
        <time>2022-04-14T07:31:41Z</time>
      </trkpt>
      <trkpt lat="48.65428" lon="1.81654">
        <ele>160.4</ele>
        <time>2022-04-14T07:31:47Z</time>
      </trkpt>
      <trkpt lat="48.65418" lon="1.81656">
        <ele>160</ele>
        <time>2022-04-14T07:31:53Z</time>
      </trkpt>
      <trkpt lat="48.65407" lon="1.81656">
        <ele>159.7</ele>
        <time>2022-04-14T07:32:00Z</time>
      </trkpt>
      <trkpt lat="48.65398" lon="1.81657">
        <ele>159.3</ele>
        <time>2022-04-14T07:32:06Z</time>
      </trkpt>
      <trkpt lat="48.65388" lon="1.81659">
        <ele>159</ele>
        <time>2022-04-14T07:32:13Z</time>
      </trkpt>
      <trkpt lat="48.65378" lon="1.81661">
        <ele>158.7</ele>
        <time>2022-04-14T07:32:20Z</time>
      </trkpt>
      <trkpt lat="48.65369" lon="1.81661">
        <ele>158.4</ele>
        <time>2022-04-14T07:32:26Z</time>
      </trkpt>
      <trkpt lat="48.6536" lon="1.81663">
        <ele>158.1</ele>
        <time>2022-04-14T07:32:32Z</time>
      </trkpt>
      <trkpt lat="48.6535" lon="1.81665">
        <ele>158</ele>
        <time>2022-04-14T07:32:38Z</time>
      </trkpt>
      <trkpt lat="48.65339" lon="1.81666">
        <ele>158</ele>
        <time>2022-04-14T07:32:45Z</time>
      </trkpt>
      <trkpt lat="48.6533" lon="1.81667">
        <ele>157.9</ele>
        <time>2022-04-14T07:32:52Z</time>
      </trkpt>
      <trkpt lat="48.65319" lon="1.81669">
        <ele>157.5</ele>
        <time>2022-04-14T07:32:59Z</time>
      </trkpt>
      <trkpt lat="48.6531" lon="1.81672">
        <ele>157.1</ele>
        <time>2022-04-14T07:33:05Z</time>
      </trkpt>
      <trkpt lat="48.653" lon="1.81676">
        <ele>156.8</ele>
        <time>2022-04-14T07:33:12Z</time>
      </trkpt>
      <trkpt lat="48.65291" lon="1.81678">
        <ele>156.5</ele>
        <time>2022-04-14T07:33:19Z</time>
      </trkpt>
      <trkpt lat="48.65281" lon="1.81678">
        <ele>156.1</ele>
        <time>2022-04-14T07:33:26Z</time>
      </trkpt>
      <trkpt lat="48.65271" lon="1.81678">
        <ele>155.9</ele>
        <time>2022-04-14T07:33:32Z</time>
      </trkpt>
      <trkpt lat="48.65262" lon="1.81679">
        <ele>155.7</ele>
        <time>2022-04-14T07:33:38Z</time>
      </trkpt>
      <trkpt lat="48.65252" lon="1.81678">
        <ele>155.5</ele>
        <time>2022-04-14T07:33:44Z</time>
      </trkpt>
      <trkpt lat="48.65243" lon="1.81678">
        <ele>155.3</ele>
        <time>2022-04-14T07:33:50Z</time>
      </trkpt>
      <trkpt lat="48.65232" lon="1.81678">
        <ele>155.2</ele>
        <time>2022-04-14T07:33:57Z</time>
      </trkpt>
      <trkpt lat="48.65222" lon="1.81678">
        <ele>155</ele>
        <time>2022-04-14T07:34:04Z</time>
      </trkpt>
      <trkpt lat="48.65212" lon="1.81678">
        <ele>154.6</ele>
        <time>2022-04-14T07:34:11Z</time>
      </trkpt>
      <trkpt lat="48.65202" lon="1.81679">
        <ele>154.3</ele>
        <time>2022-04-14T07:34:18Z</time>
      </trkpt>
      <trkpt lat="48.65191" lon="1.81682">
        <ele>153.9</ele>
        <time>2022-04-14T07:34:25Z</time>
      </trkpt>
      <trkpt lat="48.65182" lon="1.81683">
        <ele>153.7</ele>
        <time>2022-04-14T07:34:32Z</time>
      </trkpt>
      <trkpt lat="48.65172" lon="1.81683">
        <ele>153.5</ele>
        <time>2022-04-14T07:34:38Z</time>
      </trkpt>
      <trkpt lat="48.65163" lon="1.81686">
        <ele>153.2</ele>
        <time>2022-04-14T07:34:44Z</time>
      </trkpt>
      <trkpt lat="48.65153" lon="1.81688">
        <ele>152.9</ele>
        <time>2022-04-14T07:34:51Z</time>
      </trkpt>
      <trkpt lat="48.65144" lon="1.81689">
        <ele>152.5</ele>
        <time>2022-04-14T07:34:57Z</time>
      </trkpt>
      <trkpt lat="48.65134" lon="1.81688">
        <ele>152.4</ele>
        <time>2022-04-14T07:35:04Z</time>
      </trkpt>
      <trkpt lat="48.65123" lon="1.81688">
        <ele>152.3</ele>
        <time>2022-04-14T07:35:12Z</time>
      </trkpt>
      <trkpt lat="48.65114" lon="1.81688">
        <ele>152.3</ele>
        <time>2022-04-14T07:35:18Z</time>
      </trkpt>
      <trkpt lat="48.65104" lon="1.81689">
        <ele>151.7</ele>
        <time>2022-04-14T07:35:25Z</time>
      </trkpt>
      <trkpt lat="48.65095" lon="1.81689">
        <ele>150.9</ele>
        <time>2022-04-14T07:35:33Z</time>
      </trkpt>
      <trkpt lat="48.65089" lon="1.81678">
        <ele>150.6</ele>
        <time>2022-04-14T07:38:25Z</time>
      </trkpt>
      <trkpt lat="48.65085" lon="1.81665">
        <ele>150.2</ele>
        <time>2022-04-14T07:38:33Z</time>
      </trkpt>
      <trkpt lat="48.65078" lon="1.81657">
        <ele>149.8</ele>
        <time>2022-04-14T07:38:41Z</time>
      </trkpt>
      <trkpt lat="48.6507" lon="1.81647">
        <ele>149.5</ele>
        <time>2022-04-14T07:38:49Z</time>
      </trkpt>
      <trkpt lat="48.65062" lon="1.8164">
        <ele>149.2</ele>
        <time>2022-04-14T07:38:57Z</time>
      </trkpt>
      <trkpt lat="48.65053" lon="1.81636">
        <ele>149</ele>
        <time>2022-04-14T07:39:04Z</time>
      </trkpt>
      <trkpt lat="48.65045" lon="1.81627">
        <ele>149</ele>
        <time>2022-04-14T07:39:12Z</time>
      </trkpt>
      <trkpt lat="48.65037" lon="1.81617">
        <ele>149.1</ele>
        <time>2022-04-14T07:39:19Z</time>
      </trkpt>
      <trkpt lat="48.6503" lon="1.81606">
        <ele>149.2</ele>
        <time>2022-04-14T07:39:26Z</time>
      </trkpt>
      <trkpt lat="48.65023" lon="1.81597">
        <ele>149.4</ele>
        <time>2022-04-14T07:39:33Z</time>
      </trkpt>
      <trkpt lat="48.65015" lon="1.81588">
        <ele>149.4</ele>
        <time>2022-04-14T07:39:40Z</time>
      </trkpt>
      <trkpt lat="48.65008" lon="1.81578">
        <ele>149.3</ele>
        <time>2022-04-14T07:39:47Z</time>
      </trkpt>
      <trkpt lat="48.65" lon="1.81568">
        <ele>149</ele>
        <time>2022-04-14T07:39:54Z</time>
      </trkpt>
      <trkpt lat="48.64993" lon="1.81559">
        <ele>148.7</ele>
        <time>2022-04-14T07:40:01Z</time>
      </trkpt>
      <trkpt lat="48.64985" lon="1.81552">
        <ele>148.5</ele>
        <time>2022-04-14T07:40:09Z</time>
      </trkpt>
      <trkpt lat="48.64978" lon="1.81543">
        <ele>148.3</ele>
        <time>2022-04-14T07:40:18Z</time>
      </trkpt>
      <trkpt lat="48.64972" lon="1.81532">
        <ele>148</ele>
        <time>2022-04-14T07:40:25Z</time>
      </trkpt>
      <trkpt lat="48.64965" lon="1.81522">
        <ele>147.9</ele>
        <time>2022-04-14T07:40:33Z</time>
      </trkpt>
      <trkpt lat="48.64957" lon="1.81511">
        <ele>147.7</ele>
        <time>2022-04-14T07:40:41Z</time>
      </trkpt>
      <trkpt lat="48.6495" lon="1.81503">
        <ele>147.3</ele>
        <time>2022-04-14T07:40:47Z</time>
      </trkpt>
      <trkpt lat="48.64942" lon="1.81494">
        <ele>147.2</ele>
        <time>2022-04-14T07:40:53Z</time>
      </trkpt>
      <trkpt lat="48.64933" lon="1.81488">
        <ele>147.3</ele>
        <time>2022-04-14T07:40:59Z</time>
      </trkpt>
      <trkpt lat="48.64925" lon="1.8148">
        <ele>147.2</ele>
        <time>2022-04-14T07:41:05Z</time>
      </trkpt>
      <trkpt lat="48.64917" lon="1.81471">
        <ele>147.1</ele>
        <time>2022-04-14T07:41:12Z</time>
      </trkpt>
      <trkpt lat="48.64909" lon="1.81464">
        <ele>147</ele>
        <time>2022-04-14T07:41:21Z</time>
      </trkpt>
      <trkpt lat="48.64901" lon="1.81455">
        <ele>147</ele>
        <time>2022-04-14T07:41:30Z</time>
      </trkpt>
      <trkpt lat="48.64892" lon="1.81448">
        <ele>147</ele>
        <time>2022-04-14T07:41:37Z</time>
      </trkpt>
      <trkpt lat="48.64887" lon="1.81437">
        <ele>147.2</ele>
        <time>2022-04-14T07:41:45Z</time>
      </trkpt>
      <trkpt lat="48.64882" lon="1.81424">
        <ele>147.5</ele>
        <time>2022-04-14T07:41:52Z</time>
      </trkpt>
      <trkpt lat="48.64874" lon="1.81414">
        <ele>147.5</ele>
        <time>2022-04-14T07:42:01Z</time>
      </trkpt>
      <trkpt lat="48.64867" lon="1.81403">
        <ele>147.6</ele>
        <time>2022-04-14T07:42:05Z</time>
      </trkpt>
      <trkpt lat="48.64862" lon="1.81392">
        <ele>147.9</ele>
        <time>2022-04-14T07:42:09Z</time>
      </trkpt>
      <trkpt lat="48.64855" lon="1.81381">
        <ele>148.1</ele>
        <time>2022-04-14T07:42:14Z</time>
      </trkpt>
      <trkpt lat="48.64848" lon="1.81372">
        <ele>148.1</ele>
        <time>2022-04-14T07:42:19Z</time>
      </trkpt>
      <trkpt lat="48.64841" lon="1.81362">
        <ele>148.2</ele>
        <time>2022-04-14T07:42:25Z</time>
      </trkpt>
      <trkpt lat="48.64834" lon="1.81353">
        <ele>148.3</ele>
        <time>2022-04-14T07:42:31Z</time>
      </trkpt>
      <trkpt lat="48.64827" lon="1.81345">
        <ele>148.4</ele>
        <time>2022-04-14T07:42:37Z</time>
      </trkpt>
      <trkpt lat="48.64821" lon="1.81333">
        <ele>148.6</ele>
        <time>2022-04-14T07:42:46Z</time>
      </trkpt>
      <trkpt lat="48.64813" lon="1.81326">
        <ele>148.3</ele>
        <time>2022-04-14T07:42:57Z</time>
      </trkpt>
      <trkpt lat="48.64806" lon="1.81316">
        <ele>148</ele>
        <time>2022-04-14T07:43:10Z</time>
      </trkpt>
      <trkpt lat="48.64799" lon="1.81307">
        <ele>148</ele>
        <time>2022-04-14T07:43:22Z</time>
      </trkpt>
      <trkpt lat="48.64794" lon="1.81295">
        <ele>148.2</ele>
        <time>2022-04-14T07:43:32Z</time>
      </trkpt>
      <trkpt lat="48.64787" lon="1.81285">
        <ele>148.3</ele>
        <time>2022-04-14T07:43:40Z</time>
      </trkpt>
      <trkpt lat="48.6478" lon="1.81277">
        <ele>148.1</ele>
        <time>2022-04-14T07:43:45Z</time>
      </trkpt>
      <trkpt lat="48.64773" lon="1.81268">
        <ele>148.2</ele>
        <time>2022-04-14T07:43:50Z</time>
      </trkpt>
      <trkpt lat="48.64765" lon="1.81262">
        <ele>148.1</ele>
        <time>2022-04-14T07:43:54Z</time>
      </trkpt>
      <trkpt lat="48.64756" lon="1.81255">
        <ele>148</ele>
        <time>2022-04-14T07:43:59Z</time>
      </trkpt>
      <trkpt lat="48.64747" lon="1.81246">
        <ele>148</ele>
        <time>2022-04-14T07:44:05Z</time>
      </trkpt>
      <trkpt lat="48.6474" lon="1.81237">
        <ele>148.1</ele>
        <time>2022-04-14T07:44:13Z</time>
      </trkpt>
      <trkpt lat="48.64733" lon="1.81228">
        <ele>148.2</ele>
        <time>2022-04-14T07:44:20Z</time>
      </trkpt>
      <trkpt lat="48.64726" lon="1.81217">
        <ele>148.3</ele>
        <time>2022-04-14T07:44:27Z</time>
      </trkpt>
      <trkpt lat="48.64719" lon="1.81207">
        <ele>148.4</ele>
        <time>2022-04-14T07:44:35Z</time>
      </trkpt>
      <trkpt lat="48.64711" lon="1.81198">
        <ele>148.5</ele>
        <time>2022-04-14T07:44:45Z</time>
      </trkpt>
      <trkpt lat="48.64705" lon="1.81188">
        <ele>148.5</ele>
        <time>2022-04-14T07:44:51Z</time>
      </trkpt>
      <trkpt lat="48.64704" lon="1.81174">
        <ele>148.6</ele>
        <time>2022-04-14T07:44:59Z</time>
      </trkpt>
      <trkpt lat="48.64701" lon="1.8116">
        <ele>148.7</ele>
        <time>2022-04-14T07:45:09Z</time>
      </trkpt>
      <trkpt lat="48.64692" lon="1.81153">
        <ele>148.4</ele>
        <time>2022-04-14T07:45:14Z</time>
      </trkpt>
      <trkpt lat="48.64682" lon="1.81146">
        <ele>148.4</ele>
        <time>2022-04-14T07:45:19Z</time>
      </trkpt>
      <trkpt lat="48.64674" lon="1.81138">
        <ele>148.3</ele>
        <time>2022-04-14T07:45:24Z</time>
      </trkpt>
      <trkpt lat="48.64667" lon="1.81127">
        <ele>148</ele>
        <time>2022-04-14T07:45:30Z</time>
      </trkpt>
      <trkpt lat="48.6466" lon="1.81117">
        <ele>147.8</ele>
        <time>2022-04-14T07:45:37Z</time>
      </trkpt>
      <trkpt lat="48.64652" lon="1.81107">
        <ele>147.6</ele>
        <time>2022-04-14T07:45:43Z</time>
      </trkpt>
      <trkpt lat="48.64644" lon="1.81101">
        <ele>147.5</ele>
        <time>2022-04-14T07:45:51Z</time>
      </trkpt>
      <trkpt lat="48.64635" lon="1.81091">
        <ele>147.6</ele>
        <time>2022-04-14T07:45:56Z</time>
      </trkpt>
      <trkpt lat="48.64627" lon="1.8108">
        <ele>147.6</ele>
        <time>2022-04-14T07:46:01Z</time>
      </trkpt>
      <trkpt lat="48.64622" lon="1.81068">
        <ele>147.4</ele>
        <time>2022-04-14T07:46:08Z</time>
      </trkpt>
      <trkpt lat="48.64612" lon="1.81062">
        <ele>147</ele>
        <time>2022-04-14T07:46:13Z</time>
      </trkpt>
      <trkpt lat="48.64603" lon="1.81055">
        <ele>147</ele>
        <time>2022-04-14T07:46:19Z</time>
      </trkpt>
      <trkpt lat="48.64596" lon="1.81046">
        <ele>147.2</ele>
        <time>2022-04-14T07:46:26Z</time>
      </trkpt>
      <trkpt lat="48.64593" lon="1.81032">
        <ele>147.3</ele>
        <time>2022-04-14T07:46:31Z</time>
      </trkpt>
      <trkpt lat="48.64585" lon="1.81021">
        <ele>147.1</ele>
        <time>2022-04-14T07:46:37Z</time>
      </trkpt>
      <trkpt lat="48.64577" lon="1.81015">
        <ele>146.8</ele>
        <time>2022-04-14T07:46:43Z</time>
      </trkpt>
      <trkpt lat="48.64569" lon="1.81007">
        <ele>146.5</ele>
        <time>2022-04-14T07:46:48Z</time>
      </trkpt>
      <trkpt lat="48.64563" lon="1.80996">
        <ele>146.3</ele>
        <time>2022-04-14T07:46:54Z</time>
      </trkpt>
      <trkpt lat="48.64556" lon="1.80986">
        <ele>146</ele>
        <time>2022-04-14T07:47:00Z</time>
      </trkpt>
      <trkpt lat="48.6455" lon="1.80974">
        <ele>145.6</ele>
        <time>2022-04-14T07:47:05Z</time>
      </trkpt>
      <trkpt lat="48.64543" lon="1.80964">
        <ele>145.4</ele>
        <time>2022-04-14T07:47:12Z</time>
      </trkpt>
      <trkpt lat="48.64536" lon="1.80952">
        <ele>145.3</ele>
        <time>2022-04-14T07:47:18Z</time>
      </trkpt>
      <trkpt lat="48.64532" lon="1.80938">
        <ele>145.3</ele>
        <time>2022-04-14T07:47:23Z</time>
      </trkpt>
      <trkpt lat="48.64526" lon="1.80925">
        <ele>144.9</ele>
        <time>2022-04-14T07:47:29Z</time>
      </trkpt>
      <trkpt lat="48.6452" lon="1.80913">
        <ele>144.7</ele>
        <time>2022-04-14T07:47:35Z</time>
      </trkpt>
      <trkpt lat="48.64516" lon="1.809">
        <ele>144.6</ele>
        <time>2022-04-14T07:47:41Z</time>
      </trkpt>
      <trkpt lat="48.64512" lon="1.80886">
        <ele>144.5</ele>
        <time>2022-04-14T07:47:48Z</time>
      </trkpt>
      <trkpt lat="48.64506" lon="1.80874">
        <ele>144.3</ele>
        <time>2022-04-14T07:47:56Z</time>
      </trkpt>
      <trkpt lat="48.64501" lon="1.80862">
        <ele>144.1</ele>
        <time>2022-04-14T07:48:06Z</time>
      </trkpt>
      <trkpt lat="48.64505" lon="1.80849">
        <ele>144.8</ele>
        <time>2022-04-14T07:48:12Z</time>
      </trkpt>
      <trkpt lat="48.64512" lon="1.80838">
        <ele>145.7</ele>
        <time>2022-04-14T07:48:19Z</time>
      </trkpt>
      <trkpt lat="48.64521" lon="1.80842">
        <ele>146.2</ele>
        <time>2022-04-14T07:48:28Z</time>
      </trkpt>
      <trkpt lat="48.64531" lon="1.80838">
        <ele>147.4</ele>
        <time>2022-04-14T07:48:37Z</time>
      </trkpt>
      <trkpt lat="48.64539" lon="1.80831">
        <ele>149.4</ele>
        <time>2022-04-14T07:48:47Z</time>
      </trkpt>
      <trkpt lat="48.6455" lon="1.80829">
        <ele>151.3</ele>
        <time>2022-04-14T07:48:58Z</time>
      </trkpt>
      <trkpt lat="48.64559" lon="1.80827">
        <ele>152.9</ele>
        <time>2022-04-14T07:49:05Z</time>
      </trkpt>
      <trkpt lat="48.64568" lon="1.80827">
        <ele>154</ele>
        <time>2022-04-14T07:49:15Z</time>
      </trkpt>
      <trkpt lat="48.64578" lon="1.80825">
        <ele>155.1</ele>
        <time>2022-04-14T07:49:24Z</time>
      </trkpt>
      <trkpt lat="48.64588" lon="1.80827">
        <ele>155.9</ele>
        <time>2022-04-14T07:49:34Z</time>
      </trkpt>
      <trkpt lat="48.64598" lon="1.80826">
        <ele>156.3</ele>
        <time>2022-04-14T07:49:45Z</time>
      </trkpt>
      <trkpt lat="48.64607" lon="1.80827">
        <ele>156.7</ele>
        <time>2022-04-14T07:49:53Z</time>
      </trkpt>
      <trkpt lat="48.64616" lon="1.80824">
        <ele>156.9</ele>
        <time>2022-04-14T07:50:01Z</time>
      </trkpt>
      <trkpt lat="48.64626" lon="1.80823">
        <ele>157.3</ele>
        <time>2022-04-14T07:50:23Z</time>
      </trkpt>
      <trkpt lat="48.64634" lon="1.80819">
        <ele>157.7</ele>
        <time>2022-04-14T07:50:32Z</time>
      </trkpt>
      <trkpt lat="48.64644" lon="1.80815">
        <ele>158.1</ele>
        <time>2022-04-14T07:50:41Z</time>
      </trkpt>
      <trkpt lat="48.64653" lon="1.80808">
        <ele>158.5</ele>
        <time>2022-04-14T07:50:49Z</time>
      </trkpt>
      <trkpt lat="48.64663" lon="1.80807">
        <ele>158.8</ele>
        <time>2022-04-14T07:50:57Z</time>
      </trkpt>
      <trkpt lat="48.64671" lon="1.80798">
        <ele>158.9</ele>
        <time>2022-04-14T07:51:04Z</time>
      </trkpt>
      <trkpt lat="48.64681" lon="1.80798">
        <ele>159.4</ele>
        <time>2022-04-14T07:51:16Z</time>
      </trkpt>
      <trkpt lat="48.64688" lon="1.8079">
        <ele>159.7</ele>
        <time>2022-04-14T07:51:24Z</time>
      </trkpt>
      <trkpt lat="48.64695" lon="1.80781">
        <ele>160</ele>
        <time>2022-04-14T07:51:29Z</time>
      </trkpt>
      <trkpt lat="48.64704" lon="1.80772">
        <ele>160.1</ele>
        <time>2022-04-14T07:51:35Z</time>
      </trkpt>
      <trkpt lat="48.64713" lon="1.8077">
        <ele>160.2</ele>
        <time>2022-04-14T07:51:41Z</time>
      </trkpt>
      <trkpt lat="48.6472" lon="1.80761">
        <ele>160.6</ele>
        <time>2022-04-14T07:51:46Z</time>
      </trkpt>
      <trkpt lat="48.64729" lon="1.80753">
        <ele>161.1</ele>
        <time>2022-04-14T07:51:52Z</time>
      </trkpt>
      <trkpt lat="48.64738" lon="1.80747">
        <ele>161.6</ele>
        <time>2022-04-14T07:51:58Z</time>
      </trkpt>
      <trkpt lat="48.64748" lon="1.80744">
        <ele>161.9</ele>
        <time>2022-04-14T07:52:05Z</time>
      </trkpt>
      <trkpt lat="48.64757" lon="1.80746">
        <ele>162.3</ele>
        <time>2022-04-14T07:52:12Z</time>
      </trkpt>
      <trkpt lat="48.64767" lon="1.80747">
        <ele>162.6</ele>
        <time>2022-04-14T07:52:21Z</time>
      </trkpt>
      <trkpt lat="48.64776" lon="1.80746">
        <ele>162.9</ele>
        <time>2022-04-14T07:55:48Z</time>
      </trkpt>
      <trkpt lat="48.64776" lon="1.80732">
        <ele>162.9</ele>
        <time>2022-04-14T07:57:21Z</time>
      </trkpt>
      <trkpt lat="48.64775" lon="1.80718">
        <ele>162.9</ele>
        <time>2022-04-14T07:57:31Z</time>
      </trkpt>
      <trkpt lat="48.64774" lon="1.80703">
        <ele>162.9</ele>
        <time>2022-04-14T07:57:39Z</time>
      </trkpt>
      <trkpt lat="48.64774" lon="1.8069">
        <ele>162.9</ele>
        <time>2022-04-14T07:57:46Z</time>
      </trkpt>
      <trkpt lat="48.64775" lon="1.80675">
        <ele>162.9</ele>
        <time>2022-04-14T07:57:54Z</time>
      </trkpt>
      <trkpt lat="48.64776" lon="1.80659">
        <ele>163</ele>
        <time>2022-04-14T07:58:03Z</time>
      </trkpt>
      <trkpt lat="48.64777" lon="1.80644">
        <ele>163</ele>
        <time>2022-04-14T07:58:10Z</time>
      </trkpt>
      <trkpt lat="48.64777" lon="1.80629">
        <ele>163</ele>
        <time>2022-04-14T07:58:16Z</time>
      </trkpt>
      <trkpt lat="48.64777" lon="1.80615">
        <ele>163</ele>
        <time>2022-04-14T07:58:22Z</time>
      </trkpt>
      <trkpt lat="48.64776" lon="1.80601">
        <ele>163</ele>
        <time>2022-04-14T07:58:28Z</time>
      </trkpt>
      <trkpt lat="48.64776" lon="1.80586">
        <ele>163</ele>
        <time>2022-04-14T07:58:35Z</time>
      </trkpt>
      <trkpt lat="48.64775" lon="1.80571">
        <ele>163.4</ele>
        <time>2022-04-14T07:58:42Z</time>
      </trkpt>
      <trkpt lat="48.64774" lon="1.80556">
        <ele>163.9</ele>
        <time>2022-04-14T07:58:49Z</time>
      </trkpt>
      <trkpt lat="48.64775" lon="1.80541">
        <ele>163.9</ele>
        <time>2022-04-14T07:58:56Z</time>
      </trkpt>
      <trkpt lat="48.64773" lon="1.80526">
        <ele>163.8</ele>
        <time>2022-04-14T07:59:04Z</time>
      </trkpt>
      <trkpt lat="48.64773" lon="1.80512">
        <ele>163.8</ele>
        <time>2022-04-14T07:59:11Z</time>
      </trkpt>
      <trkpt lat="48.64773" lon="1.80499">
        <ele>163.8</ele>
        <time>2022-04-14T07:59:18Z</time>
      </trkpt>
      <trkpt lat="48.64774" lon="1.80484">
        <ele>163.9</ele>
        <time>2022-04-14T07:59:25Z</time>
      </trkpt>
      <trkpt lat="48.64773" lon="1.80469">
        <ele>163.8</ele>
        <time>2022-04-14T07:59:32Z</time>
      </trkpt>
      <trkpt lat="48.64773" lon="1.80454">
        <ele>163.8</ele>
        <time>2022-04-14T07:59:39Z</time>
      </trkpt>
      <trkpt lat="48.64773" lon="1.80439">
        <ele>163.8</ele>
        <time>2022-04-14T07:59:45Z</time>
      </trkpt>
      <trkpt lat="48.64773" lon="1.80423">
        <ele>163.8</ele>
        <time>2022-04-14T07:59:52Z</time>
      </trkpt>
      <trkpt lat="48.64772" lon="1.80409">
        <ele>163.8</ele>
        <time>2022-04-14T07:59:59Z</time>
      </trkpt>
      <trkpt lat="48.64772" lon="1.80395">
        <ele>163.8</ele>
        <time>2022-04-14T08:00:06Z</time>
      </trkpt>
      <trkpt lat="48.64771" lon="1.8038">
        <ele>163.8</ele>
        <time>2022-04-14T08:00:13Z</time>
      </trkpt>
      <trkpt lat="48.64771" lon="1.80366">
        <ele>163.8</ele>
        <time>2022-04-14T08:00:20Z</time>
      </trkpt>
      <trkpt lat="48.64771" lon="1.80351">
        <ele>164.1</ele>
        <time>2022-04-14T08:00:27Z</time>
      </trkpt>
      <trkpt lat="48.6477" lon="1.80336">
        <ele>164.6</ele>
        <time>2022-04-14T08:00:34Z</time>
      </trkpt>
      <trkpt lat="48.6477" lon="1.80322">
        <ele>164.7</ele>
        <time>2022-04-14T08:00:41Z</time>
      </trkpt>
      <trkpt lat="48.64769" lon="1.80307">
        <ele>164.7</ele>
        <time>2022-04-14T08:00:48Z</time>
      </trkpt>
      <trkpt lat="48.64769" lon="1.80292">
        <ele>164.7</ele>
        <time>2022-04-14T08:00:55Z</time>
      </trkpt>
      <trkpt lat="48.64769" lon="1.80277">
        <ele>164.7</ele>
        <time>2022-04-14T08:01:03Z</time>
      </trkpt>
      <trkpt lat="48.64769" lon="1.80263">
        <ele>164.7</ele>
        <time>2022-04-14T08:01:10Z</time>
      </trkpt>
      <trkpt lat="48.64768" lon="1.80248">
        <ele>164.6</ele>
        <time>2022-04-14T08:01:17Z</time>
      </trkpt>
      <trkpt lat="48.64767" lon="1.80233">
        <ele>164.6</ele>
        <time>2022-04-14T08:01:24Z</time>
      </trkpt>
      <trkpt lat="48.64767" lon="1.80218">
        <ele>164.5</ele>
        <time>2022-04-14T08:01:31Z</time>
      </trkpt>
      <trkpt lat="48.64766" lon="1.80204">
        <ele>164.2</ele>
        <time>2022-04-14T08:01:38Z</time>
      </trkpt>
      <trkpt lat="48.64766" lon="1.8019">
        <ele>163.9</ele>
        <time>2022-04-14T08:01:45Z</time>
      </trkpt>
      <trkpt lat="48.64766" lon="1.80175">
        <ele>163.7</ele>
        <time>2022-04-14T08:01:52Z</time>
      </trkpt>
      <trkpt lat="48.64761" lon="1.80164">
        <ele>163.4</ele>
        <time>2022-04-14T08:02:01Z</time>
      </trkpt>
      <trkpt lat="48.64752" lon="1.8016">
        <ele>163.1</ele>
        <time>2022-04-14T08:02:08Z</time>
      </trkpt>
      <trkpt lat="48.64743" lon="1.80163">
        <ele>162.8</ele>
        <time>2022-04-14T08:02:16Z</time>
      </trkpt>
      <trkpt lat="48.64737" lon="1.80176">
        <ele>162.7</ele>
        <time>2022-04-14T08:02:25Z</time>
      </trkpt>
      <trkpt lat="48.64733" lon="1.80188">
        <ele>162.7</ele>
        <time>2022-04-14T08:02:32Z</time>
      </trkpt>
      <trkpt lat="48.64727" lon="1.80201">
        <ele>162.3</ele>
        <time>2022-04-14T08:02:39Z</time>
      </trkpt>
      <trkpt lat="48.64721" lon="1.80214">
        <ele>162</ele>
        <time>2022-04-14T08:02:46Z</time>
      </trkpt>
      <trkpt lat="48.64715" lon="1.80226">
        <ele>162.1</ele>
        <time>2022-04-14T08:02:53Z</time>
      </trkpt>
      <trkpt lat="48.6471" lon="1.80239">
        <ele>162.1</ele>
        <time>2022-04-14T08:03:00Z</time>
      </trkpt>
      <trkpt lat="48.64704" lon="1.80252">
        <ele>161.7</ele>
        <time>2022-04-14T08:03:07Z</time>
      </trkpt>
      <trkpt lat="48.64698" lon="1.80264">
        <ele>161.7</ele>
        <time>2022-04-14T08:03:14Z</time>
      </trkpt>
      <trkpt lat="48.64691" lon="1.80277">
        <ele>161.8</ele>
        <time>2022-04-14T08:03:21Z</time>
      </trkpt>
      <trkpt lat="48.64685" lon="1.80289">
        <ele>161.5</ele>
        <time>2022-04-14T08:03:28Z</time>
      </trkpt>
      <trkpt lat="48.64679" lon="1.80301">
        <ele>160.9</ele>
        <time>2022-04-14T08:03:35Z</time>
      </trkpt>
      <trkpt lat="48.64673" lon="1.80314">
        <ele>160.4</ele>
        <time>2022-04-14T08:03:42Z</time>
      </trkpt>
      <trkpt lat="48.64667" lon="1.80326">
        <ele>160</ele>
        <time>2022-04-14T08:03:48Z</time>
      </trkpt>
      <trkpt lat="48.64662" lon="1.80338">
        <ele>159.9</ele>
        <time>2022-04-14T08:03:54Z</time>
      </trkpt>
      <trkpt lat="48.64657" lon="1.80349">
        <ele>159.6</ele>
        <time>2022-04-14T08:04:00Z</time>
      </trkpt>
      <trkpt lat="48.64651" lon="1.80361">
        <ele>158.9</ele>
        <time>2022-04-14T08:04:06Z</time>
      </trkpt>
      <trkpt lat="48.64645" lon="1.80372">
        <ele>157.7</ele>
        <time>2022-04-14T08:04:12Z</time>
      </trkpt>
      <trkpt lat="48.64638" lon="1.80383">
        <ele>156.4</ele>
        <time>2022-04-14T08:04:18Z</time>
      </trkpt>
      <trkpt lat="48.64633" lon="1.80394">
        <ele>155.5</ele>
        <time>2022-04-14T08:04:24Z</time>
      </trkpt>
      <trkpt lat="48.64627" lon="1.80406">
        <ele>154.9</ele>
        <time>2022-04-14T08:04:31Z</time>
      </trkpt>
      <trkpt lat="48.64622" lon="1.80417">
        <ele>154.1</ele>
        <time>2022-04-14T08:04:37Z</time>
      </trkpt>
      <trkpt lat="48.64616" lon="1.80428">
        <ele>153.1</ele>
        <time>2022-04-14T08:04:43Z</time>
      </trkpt>
      <trkpt lat="48.6461" lon="1.80442">
        <ele>152</ele>
        <time>2022-04-14T08:04:50Z</time>
      </trkpt>
      <trkpt lat="48.64604" lon="1.80454">
        <ele>151.5</ele>
        <time>2022-04-14T08:04:56Z</time>
      </trkpt>
      <trkpt lat="48.64598" lon="1.80465">
        <ele>151.1</ele>
        <time>2022-04-14T08:05:02Z</time>
      </trkpt>
      <trkpt lat="48.64591" lon="1.80476">
        <ele>150.6</ele>
        <time>2022-04-14T08:05:09Z</time>
      </trkpt>
      <trkpt lat="48.64586" lon="1.80489">
        <ele>150.2</ele>
        <time>2022-04-14T08:05:16Z</time>
      </trkpt>
      <trkpt lat="48.6458" lon="1.80501">
        <ele>149.8</ele>
        <time>2022-04-14T08:05:23Z</time>
      </trkpt>
      <trkpt lat="48.64574" lon="1.80514">
        <ele>149.5</ele>
        <time>2022-04-14T08:05:30Z</time>
      </trkpt>
      <trkpt lat="48.64568" lon="1.80527">
        <ele>149.4</ele>
        <time>2022-04-14T08:05:37Z</time>
      </trkpt>
      <trkpt lat="48.64562" lon="1.80539">
        <ele>149.2</ele>
        <time>2022-04-14T08:05:43Z</time>
      </trkpt>
      <trkpt lat="48.64557" lon="1.8055">
        <ele>149.1</ele>
        <time>2022-04-14T08:05:49Z</time>
      </trkpt>
      <trkpt lat="48.64551" lon="1.80562">
        <ele>148.7</ele>
        <time>2022-04-14T08:05:55Z</time>
      </trkpt>
      <trkpt lat="48.64547" lon="1.80573">
        <ele>148.6</ele>
        <time>2022-04-14T08:06:01Z</time>
      </trkpt>
      <trkpt lat="48.64541" lon="1.80586">
        <ele>148.5</ele>
        <time>2022-04-14T08:06:08Z</time>
      </trkpt>
      <trkpt lat="48.64535" lon="1.80598">
        <ele>148.4</ele>
        <time>2022-04-14T08:06:15Z</time>
      </trkpt>
      <trkpt lat="48.6453" lon="1.80611">
        <ele>148.1</ele>
        <time>2022-04-14T08:06:22Z</time>
      </trkpt>
      <trkpt lat="48.64523" lon="1.80623">
        <ele>147.7</ele>
        <time>2022-04-14T08:06:29Z</time>
      </trkpt>
      <trkpt lat="48.64518" lon="1.80635">
        <ele>147.3</ele>
        <time>2022-04-14T08:06:36Z</time>
      </trkpt>
      <trkpt lat="48.64513" lon="1.80646">
        <ele>147.2</ele>
        <time>2022-04-14T08:06:42Z</time>
      </trkpt>
      <trkpt lat="48.64508" lon="1.80659">
        <ele>147</ele>
        <time>2022-04-14T08:06:49Z</time>
      </trkpt>
      <trkpt lat="48.64503" lon="1.80671">
        <ele>146.4</ele>
        <time>2022-04-14T08:06:56Z</time>
      </trkpt>
      <trkpt lat="48.64497" lon="1.80683">
        <ele>145.9</ele>
        <time>2022-04-14T08:07:03Z</time>
      </trkpt>
      <trkpt lat="48.64491" lon="1.80695">
        <ele>145.7</ele>
        <time>2022-04-14T08:07:10Z</time>
      </trkpt>
      <trkpt lat="48.64484" lon="1.80706">
        <ele>145.4</ele>
        <time>2022-04-14T08:07:17Z</time>
      </trkpt>
      <trkpt lat="48.64479" lon="1.80718">
        <ele>145.2</ele>
        <time>2022-04-14T08:07:40Z</time>
      </trkpt>
      <trkpt lat="48.64474" lon="1.80731">
        <ele>144.8</ele>
        <time>2022-04-14T08:07:50Z</time>
      </trkpt>
      <trkpt lat="48.64471" lon="1.80743">
        <ele>144.2</ele>
        <time>2022-04-14T08:07:58Z</time>
      </trkpt>
      <trkpt lat="48.6447" lon="1.80757">
        <ele>143.9</ele>
        <time>2022-04-14T08:08:04Z</time>
      </trkpt>
      <trkpt lat="48.64465" lon="1.8077">
        <ele>143.8</ele>
        <time>2022-04-14T08:08:12Z</time>
      </trkpt>
      <trkpt lat="48.64456" lon="1.80771">
        <ele>143.4</ele>
        <time>2022-04-14T08:08:20Z</time>
      </trkpt>
      <trkpt lat="48.6445" lon="1.8076">
        <ele>143.2</ele>
        <time>2022-04-14T08:08:31Z</time>
      </trkpt>
      <trkpt lat="48.64446" lon="1.80746">
        <ele>143.2</ele>
        <time>2022-04-14T08:08:43Z</time>
      </trkpt>
      <trkpt lat="48.64437" lon="1.80739">
        <ele>143.3</ele>
        <time>2022-04-14T08:08:50Z</time>
      </trkpt>
      <trkpt lat="48.64431" lon="1.80729">
        <ele>143.4</ele>
        <time>2022-04-14T08:08:58Z</time>
      </trkpt>
      <trkpt lat="48.64428" lon="1.80715">
        <ele>143.4</ele>
        <time>2022-04-14T08:09:04Z</time>
      </trkpt>
      <trkpt lat="48.64427" lon="1.807">
        <ele>143.4</ele>
        <time>2022-04-14T08:09:08Z</time>
      </trkpt>
      <trkpt lat="48.64427" lon="1.80683">
        <ele>143.4</ele>
        <time>2022-04-14T08:09:13Z</time>
      </trkpt>
      <trkpt lat="48.64423" lon="1.80668">
        <ele>143.2</ele>
        <time>2022-04-14T08:09:19Z</time>
      </trkpt>
      <trkpt lat="48.64419" lon="1.80656">
        <ele>143.4</ele>
        <time>2022-04-14T08:09:24Z</time>
      </trkpt>
      <trkpt lat="48.64415" lon="1.80642">
        <ele>143.9</ele>
        <time>2022-04-14T08:09:30Z</time>
      </trkpt>
      <trkpt lat="48.6441" lon="1.80628">
        <ele>143.9</ele>
        <time>2022-04-14T08:09:37Z</time>
      </trkpt>
      <trkpt lat="48.64403" lon="1.80618">
        <ele>143.9</ele>
        <time>2022-04-14T08:09:46Z</time>
      </trkpt>
      <trkpt lat="48.64397" lon="1.80608">
        <ele>144</ele>
        <time>2022-04-14T08:09:53Z</time>
      </trkpt>
      <trkpt lat="48.64391" lon="1.80594">
        <ele>144</ele>
        <time>2022-04-14T08:09:58Z</time>
      </trkpt>
      <trkpt lat="48.64384" lon="1.80583">
        <ele>143.8</ele>
        <time>2022-04-14T08:10:05Z</time>
      </trkpt>
      <trkpt lat="48.64379" lon="1.80569">
        <ele>143.6</ele>
        <time>2022-04-14T08:10:11Z</time>
      </trkpt>
      <trkpt lat="48.64373" lon="1.80557">
        <ele>143.4</ele>
        <time>2022-04-14T08:10:17Z</time>
      </trkpt>
      <trkpt lat="48.64367" lon="1.80544">
        <ele>143.2</ele>
        <time>2022-04-14T08:10:23Z</time>
      </trkpt>
      <trkpt lat="48.64362" lon="1.8053">
        <ele>143</ele>
        <time>2022-04-14T08:10:29Z</time>
      </trkpt>
      <trkpt lat="48.64357" lon="1.80518">
        <ele>142.9</ele>
        <time>2022-04-14T08:10:35Z</time>
      </trkpt>
      <trkpt lat="48.64352" lon="1.80506">
        <ele>142.7</ele>
        <time>2022-04-14T08:10:42Z</time>
      </trkpt>
      <trkpt lat="48.64347" lon="1.80493">
        <ele>142.6</ele>
        <time>2022-04-14T08:10:49Z</time>
      </trkpt>
      <trkpt lat="48.64343" lon="1.80481">
        <ele>142.8</ele>
        <time>2022-04-14T08:10:56Z</time>
      </trkpt>
      <trkpt lat="48.64342" lon="1.80465">
        <ele>143</ele>
        <time>2022-04-14T08:11:03Z</time>
      </trkpt>
      <trkpt lat="48.64339" lon="1.80452">
        <ele>143</ele>
        <time>2022-04-14T08:11:10Z</time>
      </trkpt>
      <trkpt lat="48.64335" lon="1.80438">
        <ele>143.2</ele>
        <time>2022-04-14T08:11:18Z</time>
      </trkpt>
      <trkpt lat="48.64331" lon="1.80425">
        <ele>143.6</ele>
        <time>2022-04-14T08:11:25Z</time>
      </trkpt>
      <trkpt lat="48.64324" lon="1.80416">
        <ele>143.7</ele>
        <time>2022-04-14T08:11:31Z</time>
      </trkpt>
      <trkpt lat="48.64317" lon="1.80406">
        <ele>143.4</ele>
        <time>2022-04-14T08:11:38Z</time>
      </trkpt>
      <trkpt lat="48.64314" lon="1.80393">
        <ele>143.3</ele>
        <time>2022-04-14T08:11:44Z</time>
      </trkpt>
      <trkpt lat="48.64308" lon="1.80382">
        <ele>143.3</ele>
        <time>2022-04-14T08:11:51Z</time>
      </trkpt>
      <trkpt lat="48.64303" lon="1.8037">
        <ele>143.6</ele>
        <time>2022-04-14T08:11:59Z</time>
      </trkpt>
      <trkpt lat="48.64298" lon="1.80355">
        <ele>143.7</ele>
        <time>2022-04-14T08:12:06Z</time>
      </trkpt>
      <trkpt lat="48.64294" lon="1.80342">
        <ele>143.6</ele>
        <time>2022-04-14T08:12:12Z</time>
      </trkpt>
      <trkpt lat="48.64293" lon="1.80327">
        <ele>143.8</ele>
        <time>2022-04-14T08:12:20Z</time>
      </trkpt>
      <trkpt lat="48.64286" lon="1.80317">
        <ele>143.9</ele>
        <time>2022-04-14T08:12:26Z</time>
      </trkpt>
      <trkpt lat="48.64279" lon="1.80306">
        <ele>144.1</ele>
        <time>2022-04-14T08:12:32Z</time>
      </trkpt>
      <trkpt lat="48.64272" lon="1.80295">
        <ele>144.1</ele>
        <time>2022-04-14T08:12:39Z</time>
      </trkpt>
      <trkpt lat="48.64268" lon="1.80282">
        <ele>144.2</ele>
        <time>2022-04-14T08:12:46Z</time>
      </trkpt>
      <trkpt lat="48.64263" lon="1.80269">
        <ele>144.1</ele>
        <time>2022-04-14T08:12:51Z</time>
      </trkpt>
      <trkpt lat="48.64259" lon="1.80255">
        <ele>144.2</ele>
        <time>2022-04-14T08:12:58Z</time>
      </trkpt>
      <trkpt lat="48.64255" lon="1.80242">
        <ele>144.5</ele>
        <time>2022-04-14T08:13:05Z</time>
      </trkpt>
      <trkpt lat="48.6425" lon="1.8023">
        <ele>144.8</ele>
        <time>2022-04-14T08:13:11Z</time>
      </trkpt>
      <trkpt lat="48.64245" lon="1.80218">
        <ele>144.7</ele>
        <time>2022-04-14T08:13:16Z</time>
      </trkpt>
      <trkpt lat="48.64238" lon="1.80207">
        <ele>144.4</ele>
        <time>2022-04-14T08:13:21Z</time>
      </trkpt>
      <trkpt lat="48.64231" lon="1.80196">
        <ele>144.3</ele>
        <time>2022-04-14T08:13:26Z</time>
      </trkpt>
      <trkpt lat="48.64225" lon="1.80186">
        <ele>144.1</ele>
        <time>2022-04-14T08:13:31Z</time>
      </trkpt>
      <trkpt lat="48.64219" lon="1.80173">
        <ele>143.7</ele>
        <time>2022-04-14T08:13:37Z</time>
      </trkpt>
      <trkpt lat="48.64212" lon="1.80159">
        <ele>143.6</ele>
        <time>2022-04-14T08:13:43Z</time>
      </trkpt>
      <trkpt lat="48.64207" lon="1.80148">
        <ele>143.6</ele>
        <time>2022-04-14T08:13:50Z</time>
      </trkpt>
      <trkpt lat="48.64202" lon="1.80136">
        <ele>143.5</ele>
        <time>2022-04-14T08:13:57Z</time>
      </trkpt>
      <trkpt lat="48.64194" lon="1.80126">
        <ele>143</ele>
        <time>2022-04-14T08:14:04Z</time>
      </trkpt>
      <trkpt lat="48.64188" lon="1.80116">
        <ele>142.8</ele>
        <time>2022-04-14T08:14:10Z</time>
      </trkpt>
      <trkpt lat="48.64182" lon="1.80104">
        <ele>142.8</ele>
        <time>2022-04-14T08:14:17Z</time>
      </trkpt>
      <trkpt lat="48.64175" lon="1.80094">
        <ele>142.9</ele>
        <time>2022-04-14T08:14:24Z</time>
      </trkpt>
      <trkpt lat="48.64171" lon="1.80081">
        <ele>143.2</ele>
        <time>2022-04-14T08:14:31Z</time>
      </trkpt>
      <trkpt lat="48.64164" lon="1.80072">
        <ele>142.9</ele>
        <time>2022-04-14T08:14:37Z</time>
      </trkpt>
      <trkpt lat="48.64154" lon="1.80071">
        <ele>142.6</ele>
        <time>2022-04-14T08:14:47Z</time>
      </trkpt>
      <trkpt lat="48.64145" lon="1.80073">
        <ele>142.2</ele>
        <time>2022-04-14T08:15:10Z</time>
      </trkpt>
      <trkpt lat="48.64136" lon="1.80071">
        <ele>141.9</ele>
        <time>2022-04-14T08:15:24Z</time>
      </trkpt>
      <trkpt lat="48.64128" lon="1.80078">
        <ele>141.9</ele>
        <time>2022-04-14T08:16:36Z</time>
      </trkpt>
      <trkpt lat="48.64121" lon="1.80087">
        <ele>142</ele>
        <time>2022-04-14T08:16:58Z</time>
      </trkpt>
      <trkpt lat="48.64111" lon="1.80085">
        <ele>142</ele>
        <time>2022-04-14T08:17:07Z</time>
      </trkpt>
      <trkpt lat="48.64102" lon="1.8008">
        <ele>141.8</ele>
        <time>2022-04-14T08:17:15Z</time>
      </trkpt>
      <trkpt lat="48.64094" lon="1.80073">
        <ele>141.7</ele>
        <time>2022-04-14T08:17:23Z</time>
      </trkpt>
      <trkpt lat="48.64086" lon="1.80065">
        <ele>141.9</ele>
        <time>2022-04-14T08:17:30Z</time>
      </trkpt>
      <trkpt lat="48.64077" lon="1.80056">
        <ele>142.2</ele>
        <time>2022-04-14T08:17:37Z</time>
      </trkpt>
      <trkpt lat="48.64071" lon="1.80045">
        <ele>141.9</ele>
        <time>2022-04-14T08:17:46Z</time>
      </trkpt>
      <trkpt lat="48.64064" lon="1.80036">
        <ele>141.8</ele>
        <time>2022-04-14T08:17:57Z</time>
      </trkpt>
      <trkpt lat="48.64056" lon="1.80028">
        <ele>142</ele>
        <time>2022-04-14T08:18:04Z</time>
      </trkpt>
      <trkpt lat="48.64047" lon="1.80022">
        <ele>141.9</ele>
        <time>2022-04-14T08:18:10Z</time>
      </trkpt>
      <trkpt lat="48.64038" lon="1.80013">
        <ele>141.5</ele>
        <time>2022-04-14T08:18:18Z</time>
      </trkpt>
      <trkpt lat="48.64029" lon="1.80006">
        <ele>141.4</ele>
        <time>2022-04-14T08:18:24Z</time>
      </trkpt>
      <trkpt lat="48.6402" lon="1.80002">
        <ele>141.2</ele>
        <time>2022-04-14T08:18:31Z</time>
      </trkpt>
      <trkpt lat="48.64011" lon="1.79998">
        <ele>140.9</ele>
        <time>2022-04-14T08:18:39Z</time>
      </trkpt>
      <trkpt lat="48.64002" lon="1.79993">
        <ele>140.8</ele>
        <time>2022-04-14T08:18:46Z</time>
      </trkpt>
      <trkpt lat="48.63994" lon="1.79986">
        <ele>140.7</ele>
        <time>2022-04-14T08:18:54Z</time>
      </trkpt>
      <trkpt lat="48.63986" lon="1.79978">
        <ele>140.4</ele>
        <time>2022-04-14T08:19:03Z</time>
      </trkpt>
      <trkpt lat="48.63979" lon="1.79968">
        <ele>140</ele>
        <time>2022-04-14T08:19:10Z</time>
      </trkpt>
      <trkpt lat="48.63975" lon="1.79956">
        <ele>140</ele>
        <time>2022-04-14T08:19:18Z</time>
      </trkpt>
      <trkpt lat="48.63976" lon="1.79942">
        <ele>140</ele>
        <time>2022-04-14T08:19:30Z</time>
      </trkpt>
      <trkpt lat="48.6398" lon="1.79929">
        <ele>140</ele>
        <time>2022-04-14T08:19:37Z</time>
      </trkpt>
      <trkpt lat="48.63981" lon="1.79914">
        <ele>140</ele>
        <time>2022-04-14T08:19:45Z</time>
      </trkpt>
      <trkpt lat="48.63975" lon="1.79901">
        <ele>140.1</ele>
        <time>2022-04-14T08:19:50Z</time>
      </trkpt>
      <trkpt lat="48.63973" lon="1.79887">
        <ele>140</ele>
        <time>2022-04-14T08:19:54Z</time>
      </trkpt>
      <trkpt lat="48.63973" lon="1.79871">
        <ele>140</ele>
        <time>2022-04-14T08:20:00Z</time>
      </trkpt>
      <trkpt lat="48.63971" lon="1.79857">
        <ele>140.2</ele>
        <time>2022-04-14T08:20:06Z</time>
      </trkpt>
      <trkpt lat="48.63963" lon="1.79848">
        <ele>140.5</ele>
        <time>2022-04-14T08:20:12Z</time>
      </trkpt>
      <trkpt lat="48.63954" lon="1.79841">
        <ele>140.4</ele>
        <time>2022-04-14T08:20:17Z</time>
      </trkpt>
      <trkpt lat="48.63944" lon="1.79841">
        <ele>140.3</ele>
        <time>2022-04-14T08:20:20Z</time>
      </trkpt>
      <trkpt lat="48.63936" lon="1.79847">
        <ele>141.9</ele>
        <time>2022-04-14T08:20:25Z</time>
      </trkpt>
      <trkpt lat="48.63929" lon="1.79856">
        <ele>143.9</ele>
        <time>2022-04-14T08:20:33Z</time>
      </trkpt>
      <trkpt lat="48.63927" lon="1.7987">
        <ele>145.5</ele>
        <time>2022-04-14T08:20:43Z</time>
      </trkpt>
      <trkpt lat="48.63926" lon="1.79884">
        <ele>146.8</ele>
        <time>2022-04-14T08:20:51Z</time>
      </trkpt>
      <trkpt lat="48.63926" lon="1.799">
        <ele>148</ele>
        <time>2022-04-14T08:20:58Z</time>
      </trkpt>
      <trkpt lat="48.63929" lon="1.79913">
        <ele>147.9</ele>
        <time>2022-04-14T08:21:07Z</time>
      </trkpt>
      <trkpt lat="48.63932" lon="1.79926">
        <ele>148.1</ele>
        <time>2022-04-14T08:21:15Z</time>
      </trkpt>
      <trkpt lat="48.63936" lon="1.79938">
        <ele>148.3</ele>
        <time>2022-04-14T08:21:23Z</time>
      </trkpt>
      <trkpt lat="48.6394" lon="1.79951">
        <ele>148.7</ele>
        <time>2022-04-14T08:21:29Z</time>
      </trkpt>
      <trkpt lat="48.63943" lon="1.79964">
        <ele>149.4</ele>
        <time>2022-04-14T08:21:34Z</time>
      </trkpt>
      <trkpt lat="48.63946" lon="1.79978">
        <ele>149.9</ele>
        <time>2022-04-14T08:21:40Z</time>
      </trkpt>
      <trkpt lat="48.63951" lon="1.79993">
        <ele>149.2</ele>
        <time>2022-04-14T08:21:47Z</time>
      </trkpt>
      <trkpt lat="48.63953" lon="1.80007">
        <ele>150.2</ele>
        <time>2022-04-14T08:21:53Z</time>
      </trkpt>
      <trkpt lat="48.63954" lon="1.80022">
        <ele>152</ele>
        <time>2022-04-14T08:21:59Z</time>
      </trkpt>
      <trkpt lat="48.63962" lon="1.8003">
        <ele>151.5</ele>
        <time>2022-04-14T08:22:07Z</time>
      </trkpt>
      <trkpt lat="48.63965" lon="1.80043">
        <ele>152.6</ele>
        <time>2022-04-14T08:22:13Z</time>
      </trkpt>
      <trkpt lat="48.63966" lon="1.80057">
        <ele>154.5</ele>
        <time>2022-04-14T08:22:20Z</time>
      </trkpt>
      <trkpt lat="48.63969" lon="1.80072">
        <ele>154.8</ele>
        <time>2022-04-14T08:22:27Z</time>
      </trkpt>
      <trkpt lat="48.63971" lon="1.80086">
        <ele>155.2</ele>
        <time>2022-04-14T08:22:34Z</time>
      </trkpt>
      <trkpt lat="48.63971" lon="1.80101">
        <ele>155.7</ele>
        <time>2022-04-14T08:22:41Z</time>
      </trkpt>
      <trkpt lat="48.6397" lon="1.80117">
        <ele>156.2</ele>
        <time>2022-04-14T08:22:47Z</time>
      </trkpt>
      <trkpt lat="48.6397" lon="1.8013">
        <ele>156.2</ele>
        <time>2022-04-14T08:22:53Z</time>
      </trkpt>
      <trkpt lat="48.63972" lon="1.80144">
        <ele>156.2</ele>
        <time>2022-04-14T08:23:02Z</time>
      </trkpt>
      <trkpt lat="48.63972" lon="1.80159">
        <ele>156.8</ele>
        <time>2022-04-14T08:23:09Z</time>
      </trkpt>
      <trkpt lat="48.63971" lon="1.80176">
        <ele>157.8</ele>
        <time>2022-04-14T08:23:16Z</time>
      </trkpt>
      <trkpt lat="48.63972" lon="1.80191">
        <ele>158.8</ele>
        <time>2022-04-14T08:23:22Z</time>
      </trkpt>
      <trkpt lat="48.63974" lon="1.80205">
        <ele>159.3</ele>
        <time>2022-04-14T08:23:29Z</time>
      </trkpt>
      <trkpt lat="48.63974" lon="1.8022">
        <ele>159.9</ele>
        <time>2022-04-14T08:23:52Z</time>
      </trkpt>
      <trkpt lat="48.63977" lon="1.80233">
        <ele>160.2</ele>
        <time>2022-04-14T08:24:03Z</time>
      </trkpt>
      <trkpt lat="48.63969" lon="1.80242">
        <ele>160.8</ele>
        <time>2022-04-14T08:26:28Z</time>
      </trkpt>
      <trkpt lat="48.63962" lon="1.80251">
        <ele>161.4</ele>
        <time>2022-04-14T08:26:38Z</time>
      </trkpt>
      <trkpt lat="48.63955" lon="1.80263">
        <ele>161.8</ele>
        <time>2022-04-14T08:26:47Z</time>
      </trkpt>
      <trkpt lat="48.63949" lon="1.80274">
        <ele>162</ele>
        <time>2022-04-14T08:26:56Z</time>
      </trkpt>
      <trkpt lat="48.63945" lon="1.80288">
        <ele>162</ele>
        <time>2022-04-14T08:27:04Z</time>
      </trkpt>
      <trkpt lat="48.63943" lon="1.80304">
        <ele>162</ele>
        <time>2022-04-14T08:27:11Z</time>
      </trkpt>
      <trkpt lat="48.63942" lon="1.80319">
        <ele>162.5</ele>
        <time>2022-04-14T08:27:18Z</time>
      </trkpt>
      <trkpt lat="48.63939" lon="1.80333">
        <ele>163</ele>
        <time>2022-04-14T08:27:25Z</time>
      </trkpt>
      <trkpt lat="48.63936" lon="1.80348">
        <ele>162.6</ele>
        <time>2022-04-14T08:27:31Z</time>
      </trkpt>
      <trkpt lat="48.63933" lon="1.80362">
        <ele>162.4</ele>
        <time>2022-04-14T08:27:37Z</time>
      </trkpt>
      <trkpt lat="48.63928" lon="1.80373">
        <ele>162.6</ele>
        <time>2022-04-14T08:27:44Z</time>
      </trkpt>
      <trkpt lat="48.6392" lon="1.80381">
        <ele>162.9</ele>
        <time>2022-04-14T08:27:52Z</time>
      </trkpt>
      <trkpt lat="48.63913" lon="1.80391">
        <ele>163</ele>
        <time>2022-04-14T08:27:58Z</time>
      </trkpt>
      <trkpt lat="48.63908" lon="1.80404">
        <ele>163.2</ele>
        <time>2022-04-14T08:28:05Z</time>
      </trkpt>
      <trkpt lat="48.63903" lon="1.80416">
        <ele>163.5</ele>
        <time>2022-04-14T08:28:12Z</time>
      </trkpt>
      <trkpt lat="48.639" lon="1.80432">
        <ele>163.6</ele>
        <time>2022-04-14T08:28:19Z</time>
      </trkpt>
      <trkpt lat="48.63897" lon="1.80445">
        <ele>163.7</ele>
        <time>2022-04-14T08:28:25Z</time>
      </trkpt>
      <trkpt lat="48.63894" lon="1.80459">
        <ele>163.8</ele>
        <time>2022-04-14T08:28:31Z</time>
      </trkpt>
      <trkpt lat="48.63889" lon="1.80473">
        <ele>164</ele>
        <time>2022-04-14T08:28:38Z</time>
      </trkpt>
      <trkpt lat="48.63885" lon="1.80485">
        <ele>164.1</ele>
        <time>2022-04-14T08:28:45Z</time>
      </trkpt>
      <trkpt lat="48.63879" lon="1.80498">
        <ele>164.3</ele>
        <time>2022-04-14T08:28:52Z</time>
      </trkpt>
      <trkpt lat="48.63874" lon="1.80511">
        <ele>164.5</ele>
        <time>2022-04-14T08:28:59Z</time>
      </trkpt>
      <trkpt lat="48.63869" lon="1.80524">
        <ele>164.7</ele>
        <time>2022-04-14T08:29:04Z</time>
      </trkpt>
      <trkpt lat="48.63865" lon="1.80539">
        <ele>164.5</ele>
        <time>2022-04-14T08:29:09Z</time>
      </trkpt>
      <trkpt lat="48.6386" lon="1.80552">
        <ele>164.2</ele>
        <time>2022-04-14T08:29:17Z</time>
      </trkpt>
      <trkpt lat="48.63855" lon="1.80563">
        <ele>164.4</ele>
        <time>2022-04-14T08:29:24Z</time>
      </trkpt>
      <trkpt lat="48.6385" lon="1.80576">
        <ele>164.8</ele>
        <time>2022-04-14T08:29:30Z</time>
      </trkpt>
      <trkpt lat="48.63844" lon="1.80587">
        <ele>164.9</ele>
        <time>2022-04-14T08:29:37Z</time>
      </trkpt>
      <trkpt lat="48.63836" lon="1.80597">
        <ele>164.5</ele>
        <time>2022-04-14T08:29:44Z</time>
      </trkpt>
      <trkpt lat="48.63831" lon="1.80609">
        <ele>164.1</ele>
        <time>2022-04-14T08:29:49Z</time>
      </trkpt>
      <trkpt lat="48.63827" lon="1.80622">
        <ele>164</ele>
        <time>2022-04-14T08:29:55Z</time>
      </trkpt>
      <trkpt lat="48.63822" lon="1.80634">
        <ele>164</ele>
        <time>2022-04-14T08:30:01Z</time>
      </trkpt>
      <trkpt lat="48.63819" lon="1.80648">
        <ele>164</ele>
        <time>2022-04-14T08:30:07Z</time>
      </trkpt>
      <trkpt lat="48.63814" lon="1.80663">
        <ele>164</ele>
        <time>2022-04-14T08:30:14Z</time>
      </trkpt>
      <trkpt lat="48.63807" lon="1.80674">
        <ele>164</ele>
        <time>2022-04-14T08:30:21Z</time>
      </trkpt>
      <trkpt lat="48.638" lon="1.80685">
        <ele>164</ele>
        <time>2022-04-14T08:30:29Z</time>
      </trkpt>
      <trkpt lat="48.63795" lon="1.80697">
        <ele>163.9</ele>
        <time>2022-04-14T08:30:36Z</time>
      </trkpt>
      <trkpt lat="48.63792" lon="1.80711">
        <ele>163.7</ele>
        <time>2022-04-14T08:30:44Z</time>
      </trkpt>
      <trkpt lat="48.63788" lon="1.80725">
        <ele>163.6</ele>
        <time>2022-04-14T08:30:50Z</time>
      </trkpt>
      <trkpt lat="48.63782" lon="1.80736">
        <ele>163.4</ele>
        <time>2022-04-14T08:30:55Z</time>
      </trkpt>
      <trkpt lat="48.63778" lon="1.80751">
        <ele>163</ele>
        <time>2022-04-14T08:31:03Z</time>
      </trkpt>
      <trkpt lat="48.63775" lon="1.80765">
        <ele>162.5</ele>
        <time>2022-04-14T08:31:08Z</time>
      </trkpt>
      <trkpt lat="48.63772" lon="1.80778">
        <ele>162.2</ele>
        <time>2022-04-14T08:31:13Z</time>
      </trkpt>
      <trkpt lat="48.63769" lon="1.80791">
        <ele>162.2</ele>
        <time>2022-04-14T08:31:19Z</time>
      </trkpt>
      <trkpt lat="48.63763" lon="1.80805">
        <ele>162</ele>
        <time>2022-04-14T08:31:25Z</time>
      </trkpt>
      <trkpt lat="48.63759" lon="1.80819">
        <ele>162</ele>
        <time>2022-04-14T08:31:30Z</time>
      </trkpt>
      <trkpt lat="48.63754" lon="1.80832">
        <ele>162</ele>
        <time>2022-04-14T08:31:36Z</time>
      </trkpt>
      <trkpt lat="48.63752" lon="1.80846">
        <ele>161.5</ele>
        <time>2022-04-14T08:31:40Z</time>
      </trkpt>
      <trkpt lat="48.63747" lon="1.80859">
        <ele>161.2</ele>
        <time>2022-04-14T08:31:45Z</time>
      </trkpt>
      <trkpt lat="48.63743" lon="1.80872">
        <ele>161.2</ele>
        <time>2022-04-14T08:31:50Z</time>
      </trkpt>
      <trkpt lat="48.63739" lon="1.80885">
        <ele>161.1</ele>
        <time>2022-04-14T08:31:55Z</time>
      </trkpt>
      <trkpt lat="48.63733" lon="1.80897">
        <ele>161</ele>
        <time>2022-04-14T08:32:05Z</time>
      </trkpt>
      <trkpt lat="48.63727" lon="1.80908">
        <ele>161</ele>
        <time>2022-04-14T08:32:14Z</time>
      </trkpt>
      <trkpt lat="48.63723" lon="1.80921">
        <ele>161</ele>
        <time>2022-04-14T08:32:42Z</time>
      </trkpt>
      <trkpt lat="48.63717" lon="1.80933">
        <ele>160.8</ele>
        <time>2022-04-14T08:32:50Z</time>
      </trkpt>
      <trkpt lat="48.63713" lon="1.80946">
        <ele>160.4</ele>
        <time>2022-04-14T08:32:56Z</time>
      </trkpt>
      <trkpt lat="48.63709" lon="1.80959">
        <ele>160.5</ele>
        <time>2022-04-14T08:33:04Z</time>
      </trkpt>
      <trkpt lat="48.63704" lon="1.80972">
        <ele>161</ele>
        <time>2022-04-14T08:33:14Z</time>
      </trkpt>
      <trkpt lat="48.63701" lon="1.80986">
        <ele>161</ele>
        <time>2022-04-14T08:33:20Z</time>
      </trkpt>
      <trkpt lat="48.63698" lon="1.80999">
        <ele>161</ele>
        <time>2022-04-14T08:33:26Z</time>
      </trkpt>
      <trkpt lat="48.63696" lon="1.81013">
        <ele>161.4</ele>
        <time>2022-04-14T08:33:33Z</time>
      </trkpt>
      <trkpt lat="48.63694" lon="1.81026">
        <ele>162</ele>
        <time>2022-04-14T08:33:40Z</time>
      </trkpt>
      <trkpt lat="48.63696" lon="1.81041">
        <ele>162</ele>
        <time>2022-04-14T08:33:48Z</time>
      </trkpt>
      <trkpt lat="48.63698" lon="1.81054">
        <ele>161.9</ele>
        <time>2022-04-14T08:33:54Z</time>
      </trkpt>
      <trkpt lat="48.63699" lon="1.81068">
        <ele>162.3</ele>
        <time>2022-04-14T08:34:00Z</time>
      </trkpt>
      <trkpt lat="48.63701" lon="1.81083">
        <ele>162.8</ele>
        <time>2022-04-14T08:34:08Z</time>
      </trkpt>
      <trkpt lat="48.63705" lon="1.81096">
        <ele>162.6</ele>
        <time>2022-04-14T08:34:15Z</time>
      </trkpt>
      <trkpt lat="48.63709" lon="1.81109">
        <ele>162.5</ele>
        <time>2022-04-14T08:34:23Z</time>
      </trkpt>
      <trkpt lat="48.63717" lon="1.81118">
        <ele>162.2</ele>
        <time>2022-04-14T08:34:31Z</time>
      </trkpt>
      <trkpt lat="48.63719" lon="1.81133">
        <ele>162.1</ele>
        <time>2022-04-14T08:34:36Z</time>
      </trkpt>
      <trkpt lat="48.63722" lon="1.81146">
        <ele>162</ele>
        <time>2022-04-14T08:34:43Z</time>
      </trkpt>
      <trkpt lat="48.6373" lon="1.81156">
        <ele>162</ele>
        <time>2022-04-14T08:34:51Z</time>
      </trkpt>
      <trkpt lat="48.63735" lon="1.8117">
        <ele>162.1</ele>
        <time>2022-04-14T08:34:58Z</time>
      </trkpt>
      <trkpt lat="48.6374" lon="1.81182">
        <ele>162.2</ele>
        <time>2022-04-14T08:35:05Z</time>
      </trkpt>
      <trkpt lat="48.63745" lon="1.81196">
        <ele>162.2</ele>
        <time>2022-04-14T08:35:12Z</time>
      </trkpt>
      <trkpt lat="48.63749" lon="1.8121">
        <ele>162</ele>
        <time>2022-04-14T08:35:19Z</time>
      </trkpt>
      <trkpt lat="48.63753" lon="1.81225">
        <ele>162</ele>
        <time>2022-04-14T08:35:26Z</time>
      </trkpt>
      <trkpt lat="48.63756" lon="1.81238">
        <ele>162</ele>
        <time>2022-04-14T08:35:31Z</time>
      </trkpt>
      <trkpt lat="48.6376" lon="1.81251">
        <ele>162</ele>
        <time>2022-04-14T08:35:37Z</time>
      </trkpt>
      <trkpt lat="48.63765" lon="1.81265">
        <ele>162.3</ele>
        <time>2022-04-14T08:35:44Z</time>
      </trkpt>
      <trkpt lat="48.63769" lon="1.81278">
        <ele>162.3</ele>
        <time>2022-04-14T08:35:49Z</time>
      </trkpt>
      <trkpt lat="48.63776" lon="1.8129">
        <ele>162.1</ele>
        <time>2022-04-14T08:35:54Z</time>
      </trkpt>
      <trkpt lat="48.63784" lon="1.81299">
        <ele>161.8</ele>
        <time>2022-04-14T08:36:01Z</time>
      </trkpt>
      <trkpt lat="48.6379" lon="1.81312">
        <ele>161.7</ele>
        <time>2022-04-14T08:36:09Z</time>
      </trkpt>
      <trkpt lat="48.63794" lon="1.81326">
        <ele>161.8</ele>
        <time>2022-04-14T08:36:16Z</time>
      </trkpt>
      <trkpt lat="48.63798" lon="1.81338">
        <ele>161.9</ele>
        <time>2022-04-14T08:36:22Z</time>
      </trkpt>
      <trkpt lat="48.63803" lon="1.8135">
        <ele>161.5</ele>
        <time>2022-04-14T08:36:28Z</time>
      </trkpt>
      <trkpt lat="48.63808" lon="1.81361">
        <ele>161</ele>
        <time>2022-04-14T08:36:34Z</time>
      </trkpt>
      <trkpt lat="48.63813" lon="1.81375">
        <ele>161.4</ele>
        <time>2022-04-14T08:36:40Z</time>
      </trkpt>
      <trkpt lat="48.63818" lon="1.81388">
        <ele>161.5</ele>
        <time>2022-04-14T08:36:45Z</time>
      </trkpt>
      <trkpt lat="48.63822" lon="1.81401">
        <ele>161.2</ele>
        <time>2022-04-14T08:36:51Z</time>
      </trkpt>
      <trkpt lat="48.63826" lon="1.81415">
        <ele>161</ele>
        <time>2022-04-14T08:36:57Z</time>
      </trkpt>
      <trkpt lat="48.6383" lon="1.81428">
        <ele>160.6</ele>
        <time>2022-04-14T08:37:04Z</time>
      </trkpt>
      <trkpt lat="48.63834" lon="1.81441">
        <ele>160.1</ele>
        <time>2022-04-14T08:37:10Z</time>
      </trkpt>
      <trkpt lat="48.63838" lon="1.81455">
        <ele>159</ele>
        <time>2022-04-14T08:37:16Z</time>
      </trkpt>
      <trkpt lat="48.63842" lon="1.81469">
        <ele>157.9</ele>
        <time>2022-04-14T08:37:21Z</time>
      </trkpt>
      <trkpt lat="48.63848" lon="1.8148">
        <ele>157.2</ele>
        <time>2022-04-14T08:37:27Z</time>
      </trkpt>
      <trkpt lat="48.63853" lon="1.81493">
        <ele>156.5</ele>
        <time>2022-04-14T08:37:32Z</time>
      </trkpt>
      <trkpt lat="48.63858" lon="1.81506">
        <ele>155.9</ele>
        <time>2022-04-14T08:37:38Z</time>
      </trkpt>
      <trkpt lat="48.63864" lon="1.81518">
        <ele>155.1</ele>
        <time>2022-04-14T08:37:44Z</time>
      </trkpt>
      <trkpt lat="48.63871" lon="1.8153">
        <ele>154.2</ele>
        <time>2022-04-14T08:37:50Z</time>
      </trkpt>
      <trkpt lat="48.63877" lon="1.81543">
        <ele>153.6</ele>
        <time>2022-04-14T08:37:57Z</time>
      </trkpt>
      <trkpt lat="48.63882" lon="1.81556">
        <ele>153.2</ele>
        <time>2022-04-14T08:38:04Z</time>
      </trkpt>
      <trkpt lat="48.63886" lon="1.81569">
        <ele>152.6</ele>
        <time>2022-04-14T08:38:13Z</time>
      </trkpt>
      <trkpt lat="48.6389" lon="1.81581">
        <ele>152</ele>
        <time>2022-04-14T08:38:21Z</time>
      </trkpt>
      <trkpt lat="48.63894" lon="1.81593">
        <ele>151.5</ele>
        <time>2022-04-14T08:38:28Z</time>
      </trkpt>
      <trkpt lat="48.63897" lon="1.81607">
        <ele>150.8</ele>
        <time>2022-04-14T08:38:35Z</time>
      </trkpt>
      <trkpt lat="48.63903" lon="1.81618">
        <ele>150.2</ele>
        <time>2022-04-14T08:38:41Z</time>
      </trkpt>
      <trkpt lat="48.63907" lon="1.8163">
        <ele>149.7</ele>
        <time>2022-04-14T08:38:48Z</time>
      </trkpt>
      <trkpt lat="48.6391" lon="1.81644">
        <ele>149.1</ele>
        <time>2022-04-14T08:38:56Z</time>
      </trkpt>
      <trkpt lat="48.63916" lon="1.81656">
        <ele>148.4</ele>
        <time>2022-04-14T08:39:03Z</time>
      </trkpt>
      <trkpt lat="48.63922" lon="1.81669">
        <ele>148</ele>
        <time>2022-04-14T08:39:09Z</time>
      </trkpt>
      <trkpt lat="48.63926" lon="1.81682">
        <ele>147.8</ele>
        <time>2022-04-14T08:39:16Z</time>
      </trkpt>
      <trkpt lat="48.63931" lon="1.81695">
        <ele>147.5</ele>
        <time>2022-04-14T08:39:22Z</time>
      </trkpt>
      <trkpt lat="48.63937" lon="1.81706">
        <ele>147.3</ele>
        <time>2022-04-14T08:39:31Z</time>
      </trkpt>
      <trkpt lat="48.63943" lon="1.81718">
        <ele>147.1</ele>
        <time>2022-04-14T08:39:38Z</time>
      </trkpt>
      <trkpt lat="48.63947" lon="1.81732">
        <ele>146.6</ele>
        <time>2022-04-14T08:39:45Z</time>
      </trkpt>
      <trkpt lat="48.63951" lon="1.81744">
        <ele>146</ele>
        <time>2022-04-14T08:39:55Z</time>
      </trkpt>
      <trkpt lat="48.63958" lon="1.81753">
        <ele>145.5</ele>
        <time>2022-04-14T08:42:01Z</time>
      </trkpt>
      <trkpt lat="48.63964" lon="1.81763">
        <ele>145.3</ele>
        <time>2022-04-14T08:42:43Z</time>
      </trkpt>
      <trkpt lat="48.63969" lon="1.81776">
        <ele>145.1</ele>
        <time>2022-04-14T08:42:50Z</time>
      </trkpt>
      <trkpt lat="48.63977" lon="1.81785">
        <ele>144.7</ele>
        <time>2022-04-14T08:42:57Z</time>
      </trkpt>
      <trkpt lat="48.63985" lon="1.81792">
        <ele>144.5</ele>
        <time>2022-04-14T08:43:07Z</time>
      </trkpt>
      <trkpt lat="48.63995" lon="1.81795">
        <ele>144.4</ele>
        <time>2022-04-14T08:43:17Z</time>
      </trkpt>
      <trkpt lat="48.64003" lon="1.81803">
        <ele>144.6</ele>
        <time>2022-04-14T08:43:26Z</time>
      </trkpt>
      <trkpt lat="48.64012" lon="1.81809">
        <ele>144.2</ele>
        <time>2022-04-14T08:43:34Z</time>
      </trkpt>
      <trkpt lat="48.6402" lon="1.81817">
        <ele>143.8</ele>
        <time>2022-04-14T08:43:41Z</time>
      </trkpt>
      <trkpt lat="48.64026" lon="1.81828">
        <ele>143.9</ele>
        <time>2022-04-14T08:43:46Z</time>
      </trkpt>
      <trkpt lat="48.64033" lon="1.81838">
        <ele>144</ele>
        <time>2022-04-14T08:43:52Z</time>
      </trkpt>
      <trkpt lat="48.64041" lon="1.81846">
        <ele>144</ele>
        <time>2022-04-14T08:43:58Z</time>
      </trkpt>
      <trkpt lat="48.64049" lon="1.81855">
        <ele>144</ele>
        <time>2022-04-14T08:44:05Z</time>
      </trkpt>
      <trkpt lat="48.64057" lon="1.81864">
        <ele>144</ele>
        <time>2022-04-14T08:44:11Z</time>
      </trkpt>
      <trkpt lat="48.64062" lon="1.81876">
        <ele>143.8</ele>
        <time>2022-04-14T08:44:18Z</time>
      </trkpt>
      <trkpt lat="48.64067" lon="1.81888">
        <ele>143.6</ele>
        <time>2022-04-14T08:44:24Z</time>
      </trkpt>
      <trkpt lat="48.64073" lon="1.81898">
        <ele>143.7</ele>
        <time>2022-04-14T08:44:28Z</time>
      </trkpt>
      <trkpt lat="48.64081" lon="1.8191">
        <ele>143.8</ele>
        <time>2022-04-14T08:44:36Z</time>
      </trkpt>
      <trkpt lat="48.64089" lon="1.81919">
        <ele>143.9</ele>
        <time>2022-04-14T08:44:42Z</time>
      </trkpt>
      <trkpt lat="48.64096" lon="1.8193">
        <ele>144</ele>
        <time>2022-04-14T08:44:48Z</time>
      </trkpt>
      <trkpt lat="48.64102" lon="1.8194">
        <ele>144.2</ele>
        <time>2022-04-14T08:44:54Z</time>
      </trkpt>
      <trkpt lat="48.6411" lon="1.81951">
        <ele>144.3</ele>
        <time>2022-04-14T08:45:01Z</time>
      </trkpt>
      <trkpt lat="48.64117" lon="1.81959">
        <ele>144.3</ele>
        <time>2022-04-14T08:45:07Z</time>
      </trkpt>
      <trkpt lat="48.64125" lon="1.81967">
        <ele>144.3</ele>
        <time>2022-04-14T08:45:12Z</time>
      </trkpt>
      <trkpt lat="48.64132" lon="1.81975">
        <ele>144.3</ele>
        <time>2022-04-14T08:45:17Z</time>
      </trkpt>
      <trkpt lat="48.6414" lon="1.81985">
        <ele>144.4</ele>
        <time>2022-04-14T08:45:22Z</time>
      </trkpt>
      <trkpt lat="48.64149" lon="1.81992">
        <ele>144.1</ele>
        <time>2022-04-14T08:45:30Z</time>
      </trkpt>
      <trkpt lat="48.64156" lon="1.82002">
        <ele>143.8</ele>
        <time>2022-04-14T08:45:36Z</time>
      </trkpt>
      <trkpt lat="48.64163" lon="1.82014">
        <ele>144.1</ele>
        <time>2022-04-14T08:45:41Z</time>
      </trkpt>
      <trkpt lat="48.64169" lon="1.82025">
        <ele>144.7</ele>
        <time>2022-04-14T08:45:47Z</time>
      </trkpt>
      <trkpt lat="48.64176" lon="1.82036">
        <ele>144.2</ele>
        <time>2022-04-14T08:45:54Z</time>
      </trkpt>
      <trkpt lat="48.64184" lon="1.82044">
        <ele>143.9</ele>
        <time>2022-04-14T08:46:02Z</time>
      </trkpt>
      <trkpt lat="48.6419" lon="1.82056">
        <ele>144</ele>
        <time>2022-04-14T08:46:09Z</time>
      </trkpt>
      <trkpt lat="48.64197" lon="1.82067">
        <ele>144</ele>
        <time>2022-04-14T08:46:17Z</time>
      </trkpt>
      <trkpt lat="48.64205" lon="1.82073">
        <ele>143.9</ele>
        <time>2022-04-14T08:46:24Z</time>
      </trkpt>
      <trkpt lat="48.64214" lon="1.8208">
        <ele>143.9</ele>
        <time>2022-04-14T08:46:31Z</time>
      </trkpt>
      <trkpt lat="48.64221" lon="1.8209">
        <ele>144</ele>
        <time>2022-04-14T08:46:37Z</time>
      </trkpt>
      <trkpt lat="48.64219" lon="1.82106">
        <ele>144</ele>
        <time>2022-04-14T08:46:43Z</time>
      </trkpt>
      <trkpt lat="48.64219" lon="1.8212">
        <ele>144</ele>
        <time>2022-04-14T08:46:48Z</time>
      </trkpt>
      <trkpt lat="48.6422" lon="1.82135">
        <ele>144.1</ele>
        <time>2022-04-14T08:46:53Z</time>
      </trkpt>
      <trkpt lat="48.64217" lon="1.8215">
        <ele>144.2</ele>
        <time>2022-04-14T08:46:58Z</time>
      </trkpt>
      <trkpt lat="48.64216" lon="1.82165">
        <ele>144.2</ele>
        <time>2022-04-14T08:47:04Z</time>
      </trkpt>
      <trkpt lat="48.64218" lon="1.82178">
        <ele>144.1</ele>
        <time>2022-04-14T08:47:11Z</time>
      </trkpt>
      <trkpt lat="48.64217" lon="1.82192">
        <ele>144.2</ele>
        <time>2022-04-14T08:47:19Z</time>
      </trkpt>
      <trkpt lat="48.64213" lon="1.82206">
        <ele>144.6</ele>
        <time>2022-04-14T08:47:24Z</time>
      </trkpt>
      <trkpt lat="48.64209" lon="1.8222">
        <ele>145</ele>
        <time>2022-04-14T08:47:30Z</time>
      </trkpt>
      <trkpt lat="48.64203" lon="1.82232">
        <ele>145</ele>
        <time>2022-04-14T08:47:38Z</time>
      </trkpt>
      <trkpt lat="48.642" lon="1.82245">
        <ele>145</ele>
        <time>2022-04-14T08:47:45Z</time>
      </trkpt>
      <trkpt lat="48.64196" lon="1.82259">
        <ele>145</ele>
        <time>2022-04-14T08:47:52Z</time>
      </trkpt>
      <trkpt lat="48.6419" lon="1.82272">
        <ele>145.1</ele>
        <time>2022-04-14T08:47:59Z</time>
      </trkpt>
      <trkpt lat="48.64186" lon="1.82284">
        <ele>145.3</ele>
        <time>2022-04-14T08:48:05Z</time>
      </trkpt>
      <trkpt lat="48.6418" lon="1.82298">
        <ele>145.5</ele>
        <time>2022-04-14T08:48:12Z</time>
      </trkpt>
      <trkpt lat="48.64175" lon="1.8231">
        <ele>145.7</ele>
        <time>2022-04-14T08:48:18Z</time>
      </trkpt>
      <trkpt lat="48.6417" lon="1.82322">
        <ele>145.9</ele>
        <time>2022-04-14T08:48:25Z</time>
      </trkpt>
      <trkpt lat="48.64165" lon="1.82334">
        <ele>146</ele>
        <time>2022-04-14T08:48:31Z</time>
      </trkpt>
      <trkpt lat="48.64159" lon="1.82347">
        <ele>145.9</ele>
        <time>2022-04-14T08:48:38Z</time>
      </trkpt>
      <trkpt lat="48.64153" lon="1.8236">
        <ele>146</ele>
        <time>2022-04-14T08:48:45Z</time>
      </trkpt>
      <trkpt lat="48.64149" lon="1.82373">
        <ele>146.3</ele>
        <time>2022-04-14T08:48:55Z</time>
      </trkpt>
      <trkpt lat="48.64146" lon="1.82388">
        <ele>146.5</ele>
        <time>2022-04-14T08:49:03Z</time>
      </trkpt>
      <trkpt lat="48.64145" lon="1.82402">
        <ele>146.4</ele>
        <time>2022-04-14T08:49:13Z</time>
      </trkpt>
      <trkpt lat="48.64148" lon="1.82417">
        <ele>146.1</ele>
        <time>2022-04-14T08:49:22Z</time>
      </trkpt>
      <trkpt lat="48.64152" lon="1.8243">
        <ele>145.9</ele>
        <time>2022-04-14T08:49:30Z</time>
      </trkpt>
      <trkpt lat="48.64157" lon="1.82443">
        <ele>145.7</ele>
        <time>2022-04-14T08:49:39Z</time>
      </trkpt>
      <trkpt lat="48.64159" lon="1.82458">
        <ele>146.1</ele>
        <time>2022-04-14T08:49:47Z</time>
      </trkpt>
      <trkpt lat="48.64164" lon="1.82471">
        <ele>146.1</ele>
        <time>2022-04-14T08:49:53Z</time>
      </trkpt>
      <trkpt lat="48.64171" lon="1.82481">
        <ele>146.2</ele>
        <time>2022-04-14T08:50:00Z</time>
      </trkpt>
      <trkpt lat="48.64179" lon="1.8249">
        <ele>146.2</ele>
        <time>2022-04-14T08:50:08Z</time>
      </trkpt>
      <trkpt lat="48.64187" lon="1.82497">
        <ele>146.2</ele>
        <time>2022-04-14T08:50:17Z</time>
      </trkpt>
      <trkpt lat="48.64196" lon="1.82504">
        <ele>146.1</ele>
        <time>2022-04-14T08:50:26Z</time>
      </trkpt>
      <trkpt lat="48.64207" lon="1.82508">
        <ele>146.3</ele>
        <time>2022-04-14T08:50:37Z</time>
      </trkpt>
      <trkpt lat="48.64216" lon="1.8251">
        <ele>146.4</ele>
        <time>2022-04-14T08:50:43Z</time>
      </trkpt>
      <trkpt lat="48.64227" lon="1.82506">
        <ele>146.4</ele>
        <time>2022-04-14T08:50:50Z</time>
      </trkpt>
      <trkpt lat="48.64235" lon="1.82497">
        <ele>146.4</ele>
        <time>2022-04-14T08:50:58Z</time>
      </trkpt>
      <trkpt lat="48.64243" lon="1.82487">
        <ele>146.3</ele>
        <time>2022-04-14T08:51:06Z</time>
      </trkpt>
      <trkpt lat="48.64251" lon="1.82482">
        <ele>146.4</ele>
        <time>2022-04-14T08:51:13Z</time>
      </trkpt>
      <trkpt lat="48.64259" lon="1.82473">
        <ele>146.3</ele>
        <time>2022-04-14T08:51:20Z</time>
      </trkpt>
      <trkpt lat="48.64264" lon="1.82461">
        <ele>146.3</ele>
        <time>2022-04-14T08:51:28Z</time>
      </trkpt>
      <trkpt lat="48.6427" lon="1.8245">
        <ele>146.5</ele>
        <time>2022-04-14T08:51:34Z</time>
      </trkpt>
      <trkpt lat="48.64274" lon="1.82438">
        <ele>146.5</ele>
        <time>2022-04-14T08:51:40Z</time>
      </trkpt>
      <trkpt lat="48.64279" lon="1.82424">
        <ele>146.3</ele>
        <time>2022-04-14T08:51:46Z</time>
      </trkpt>
      <trkpt lat="48.64284" lon="1.82411">
        <ele>146.1</ele>
        <time>2022-04-14T08:51:52Z</time>
      </trkpt>
      <trkpt lat="48.64289" lon="1.82398">
        <ele>146</ele>
        <time>2022-04-14T08:51:58Z</time>
      </trkpt>
      <trkpt lat="48.64295" lon="1.82386">
        <ele>146.2</ele>
        <time>2022-04-14T08:52:05Z</time>
      </trkpt>
      <trkpt lat="48.643" lon="1.82374">
        <ele>146.2</ele>
        <time>2022-04-14T08:52:10Z</time>
      </trkpt>
      <trkpt lat="48.64306" lon="1.82362">
        <ele>146.1</ele>
        <time>2022-04-14T08:52:17Z</time>
      </trkpt>
      <trkpt lat="48.64311" lon="1.82349">
        <ele>145.8</ele>
        <time>2022-04-14T08:52:24Z</time>
      </trkpt>
      <trkpt lat="48.64312" lon="1.82333">
        <ele>145.2</ele>
        <time>2022-04-14T08:52:32Z</time>
      </trkpt>
      <trkpt lat="48.64314" lon="1.8232">
        <ele>145.3</ele>
        <time>2022-04-14T08:52:37Z</time>
      </trkpt>
      <trkpt lat="48.64315" lon="1.82306">
        <ele>145.3</ele>
        <time>2022-04-14T08:52:45Z</time>
      </trkpt>
      <trkpt lat="48.64312" lon="1.82291">
        <ele>145.2</ele>
        <time>2022-04-14T08:52:52Z</time>
      </trkpt>
      <trkpt lat="48.64314" lon="1.82278">
        <ele>145.3</ele>
        <time>2022-04-14T08:52:59Z</time>
      </trkpt>
      <trkpt lat="48.64315" lon="1.82264">
        <ele>145.2</ele>
        <time>2022-04-14T08:53:10Z</time>
      </trkpt>
      <trkpt lat="48.64317" lon="1.82249">
        <ele>145</ele>
        <time>2022-04-14T08:53:20Z</time>
      </trkpt>
      <trkpt lat="48.64325" lon="1.82238">
        <ele>145</ele>
        <time>2022-04-14T08:53:26Z</time>
      </trkpt>
      <trkpt lat="48.64332" lon="1.82228">
        <ele>145</ele>
        <time>2022-04-14T08:53:33Z</time>
      </trkpt>
      <trkpt lat="48.64338" lon="1.82217">
        <ele>145.2</ele>
        <time>2022-04-14T08:53:40Z</time>
      </trkpt>
      <trkpt lat="48.64343" lon="1.82205">
        <ele>145.3</ele>
        <time>2022-04-14T08:53:46Z</time>
      </trkpt>
      <trkpt lat="48.64349" lon="1.82192">
        <ele>145.5</ele>
        <time>2022-04-14T08:53:54Z</time>
      </trkpt>
      <trkpt lat="48.64355" lon="1.82181">
        <ele>145.4</ele>
        <time>2022-04-14T08:54:03Z</time>
      </trkpt>
      <trkpt lat="48.64361" lon="1.82169">
        <ele>145.1</ele>
        <time>2022-04-14T08:54:10Z</time>
      </trkpt>
      <trkpt lat="48.64366" lon="1.82156">
        <ele>145.2</ele>
        <time>2022-04-14T08:54:18Z</time>
      </trkpt>
      <trkpt lat="48.64371" lon="1.82143">
        <ele>145.3</ele>
        <time>2022-04-14T08:54:25Z</time>
      </trkpt>
      <trkpt lat="48.64376" lon="1.82131">
        <ele>145.2</ele>
        <time>2022-04-14T08:54:32Z</time>
      </trkpt>
      <trkpt lat="48.64382" lon="1.82118">
        <ele>145</ele>
        <time>2022-04-14T08:54:40Z</time>
      </trkpt>
      <trkpt lat="48.64387" lon="1.82106">
        <ele>144.8</ele>
        <time>2022-04-14T08:54:48Z</time>
      </trkpt>
      <trkpt lat="48.64392" lon="1.82093">
        <ele>144.5</ele>
        <time>2022-04-14T08:54:57Z</time>
      </trkpt>
      <trkpt lat="48.64398" lon="1.82082">
        <ele>144.7</ele>
        <time>2022-04-14T08:55:03Z</time>
      </trkpt>
      <trkpt lat="48.64404" lon="1.8207">
        <ele>144.8</ele>
        <time>2022-04-14T08:55:09Z</time>
      </trkpt>
      <trkpt lat="48.6441" lon="1.82058">
        <ele>144.8</ele>
        <time>2022-04-14T08:55:15Z</time>
      </trkpt>
      <trkpt lat="48.64414" lon="1.82045">
        <ele>144.9</ele>
        <time>2022-04-14T08:55:20Z</time>
      </trkpt>
      <trkpt lat="48.64417" lon="1.82032">
        <ele>145</ele>
        <time>2022-04-14T08:55:25Z</time>
      </trkpt>
      <trkpt lat="48.64421" lon="1.82019">
        <ele>145.2</ele>
        <time>2022-04-14T08:55:32Z</time>
      </trkpt>
      <trkpt lat="48.64425" lon="1.82004">
        <ele>145.1</ele>
        <time>2022-04-14T08:55:40Z</time>
      </trkpt>
      <trkpt lat="48.64427" lon="1.8199">
        <ele>145</ele>
        <time>2022-04-14T08:55:46Z</time>
      </trkpt>
      <trkpt lat="48.64432" lon="1.81977">
        <ele>145</ele>
        <time>2022-04-14T08:55:55Z</time>
      </trkpt>
      <trkpt lat="48.64427" lon="1.81963">
        <ele>145</ele>
        <time>2022-04-14T08:56:03Z</time>
      </trkpt>
      <trkpt lat="48.64425" lon="1.81948">
        <ele>145</ele>
        <time>2022-04-14T08:56:08Z</time>
      </trkpt>
      <trkpt lat="48.64423" lon="1.81932">
        <ele>145</ele>
        <time>2022-04-14T08:56:15Z</time>
      </trkpt>
      <trkpt lat="48.64425" lon="1.81918">
        <ele>145</ele>
        <time>2022-04-14T08:56:22Z</time>
      </trkpt>
      <trkpt lat="48.64421" lon="1.81907">
        <ele>144.7</ele>
        <time>2022-04-14T08:56:33Z</time>
      </trkpt>
      <trkpt lat="48.64422" lon="1.81893">
        <ele>144.3</ele>
        <time>2022-04-14T08:56:42Z</time>
      </trkpt>
      <trkpt lat="48.64424" lon="1.81879">
        <ele>144.3</ele>
        <time>2022-04-14T08:56:49Z</time>
      </trkpt>
      <trkpt lat="48.64424" lon="1.81865">
        <ele>144.3</ele>
        <time>2022-04-14T08:56:53Z</time>
      </trkpt>
      <trkpt lat="48.64428" lon="1.81852">
        <ele>144.3</ele>
        <time>2022-04-14T08:56:59Z</time>
      </trkpt>
      <trkpt lat="48.64431" lon="1.81837">
        <ele>144.1</ele>
        <time>2022-04-14T08:57:06Z</time>
      </trkpt>
      <trkpt lat="48.64432" lon="1.81822">
        <ele>143.8</ele>
        <time>2022-04-14T08:57:12Z</time>
      </trkpt>
      <trkpt lat="48.64436" lon="1.81809">
        <ele>143.7</ele>
        <time>2022-04-14T08:57:19Z</time>
      </trkpt>
      <trkpt lat="48.64443" lon="1.81798">
        <ele>144</ele>
        <time>2022-04-14T08:57:25Z</time>
      </trkpt>
      <trkpt lat="48.64447" lon="1.81785">
        <ele>144</ele>
        <time>2022-04-14T08:57:31Z</time>
      </trkpt>
      <trkpt lat="48.64451" lon="1.81772">
        <ele>143.8</ele>
        <time>2022-04-14T08:57:37Z</time>
      </trkpt>
      <trkpt lat="48.64456" lon="1.8176">
        <ele>143.6</ele>
        <time>2022-04-14T08:57:44Z</time>
      </trkpt>
      <trkpt lat="48.64461" lon="1.81746">
        <ele>143.6</ele>
        <time>2022-04-14T08:57:50Z</time>
      </trkpt>
      <trkpt lat="48.64466" lon="1.81733">
        <ele>143.8</ele>
        <time>2022-04-14T08:57:56Z</time>
      </trkpt>
      <trkpt lat="48.64472" lon="1.81721">
        <ele>143.9</ele>
        <time>2022-04-14T08:58:02Z</time>
      </trkpt>
      <trkpt lat="48.64477" lon="1.81707">
        <ele>143.5</ele>
        <time>2022-04-14T08:58:09Z</time>
      </trkpt>
      <trkpt lat="48.64483" lon="1.81696">
        <ele>143.4</ele>
        <time>2022-04-14T08:58:16Z</time>
      </trkpt>
      <trkpt lat="48.64489" lon="1.81684">
        <ele>143.6</ele>
        <time>2022-04-14T08:58:23Z</time>
      </trkpt>
      <trkpt lat="48.64493" lon="1.8167">
        <ele>143.8</ele>
        <time>2022-04-14T08:58:30Z</time>
      </trkpt>
      <trkpt lat="48.64499" lon="1.81659">
        <ele>143.7</ele>
        <time>2022-04-14T08:58:37Z</time>
      </trkpt>
      <trkpt lat="48.64504" lon="1.81647">
        <ele>143.4</ele>
        <time>2022-04-14T08:58:44Z</time>
      </trkpt>
      <trkpt lat="48.64509" lon="1.81634">
        <ele>143.3</ele>
        <time>2022-04-14T08:58:51Z</time>
      </trkpt>
      <trkpt lat="48.64517" lon="1.81644">
        <ele>143.7</ele>
        <time>2022-04-14T08:59:14Z</time>
      </trkpt>
      <trkpt lat="48.64526" lon="1.8165">
        <ele>144</ele>
        <time>2022-04-14T08:59:22Z</time>
      </trkpt>
      <trkpt lat="48.64534" lon="1.81659">
        <ele>144</ele>
        <time>2022-04-14T08:59:30Z</time>
      </trkpt>
      <trkpt lat="48.64542" lon="1.81666">
        <ele>144</ele>
        <time>2022-04-14T08:59:38Z</time>
      </trkpt>
      <trkpt lat="48.64549" lon="1.81677">
        <ele>144</ele>
        <time>2022-04-14T08:59:48Z</time>
      </trkpt>
      <trkpt lat="48.64557" lon="1.81684">
        <ele>144</ele>
        <time>2022-04-14T08:59:57Z</time>
      </trkpt>
      <trkpt lat="48.64562" lon="1.81697">
        <ele>144.3</ele>
        <time>2022-04-14T09:00:06Z</time>
      </trkpt>
      <trkpt lat="48.64569" lon="1.81706">
        <ele>144.7</ele>
        <time>2022-04-14T09:00:13Z</time>
      </trkpt>
      <trkpt lat="48.64579" lon="1.8171">
        <ele>144.9</ele>
        <time>2022-04-14T09:00:20Z</time>
      </trkpt>
      <trkpt lat="48.64588" lon="1.81716">
        <ele>145.1</ele>
        <time>2022-04-14T09:00:28Z</time>
      </trkpt>
      <trkpt lat="48.64597" lon="1.81718">
        <ele>145.4</ele>
        <time>2022-04-14T09:00:35Z</time>
      </trkpt>
      <trkpt lat="48.64606" lon="1.81718">
        <ele>145.7</ele>
        <time>2022-04-14T09:00:43Z</time>
      </trkpt>
      <trkpt lat="48.64615" lon="1.81716">
        <ele>145.8</ele>
        <time>2022-04-14T09:00:51Z</time>
      </trkpt>
      <trkpt lat="48.64624" lon="1.81722">
        <ele>146</ele>
        <time>2022-04-14T09:01:01Z</time>
      </trkpt>
      <trkpt lat="48.64634" lon="1.81723">
        <ele>146</ele>
        <time>2022-04-14T09:01:10Z</time>
      </trkpt>
      <trkpt lat="48.64644" lon="1.81724">
        <ele>146</ele>
        <time>2022-04-14T09:01:19Z</time>
      </trkpt>
      <trkpt lat="48.64653" lon="1.81723">
        <ele>146</ele>
        <time>2022-04-14T09:01:30Z</time>
      </trkpt>
      <trkpt lat="48.64663" lon="1.81721">
        <ele>146</ele>
        <time>2022-04-14T09:01:37Z</time>
      </trkpt>
      <trkpt lat="48.64672" lon="1.81721">
        <ele>145.9</ele>
        <time>2022-04-14T09:01:44Z</time>
      </trkpt>
      <trkpt lat="48.64682" lon="1.81721">
        <ele>145.9</ele>
        <time>2022-04-14T09:01:50Z</time>
      </trkpt>
      <trkpt lat="48.6469" lon="1.81716">
        <ele>145.8</ele>
        <time>2022-04-14T09:01:59Z</time>
      </trkpt>
      <trkpt lat="48.647" lon="1.81718">
        <ele>145.8</ele>
        <time>2022-04-14T09:02:09Z</time>
      </trkpt>
      <trkpt lat="48.64709" lon="1.81717">
        <ele>145.8</ele>
        <time>2022-04-14T09:02:16Z</time>
      </trkpt>
      <trkpt lat="48.64719" lon="1.81715">
        <ele>145.7</ele>
        <time>2022-04-14T09:02:22Z</time>
      </trkpt>
      <trkpt lat="48.64728" lon="1.81711">
        <ele>145.6</ele>
        <time>2022-04-14T09:02:29Z</time>
      </trkpt>
      <trkpt lat="48.64738" lon="1.8171">
        <ele>145.5</ele>
        <time>2022-04-14T09:02:36Z</time>
      </trkpt>
      <trkpt lat="48.64748" lon="1.81709">
        <ele>145.5</ele>
        <time>2022-04-14T09:02:42Z</time>
      </trkpt>
      <trkpt lat="48.64757" lon="1.81712">
        <ele>145.7</ele>
        <time>2022-04-14T09:02:49Z</time>
      </trkpt>
      <trkpt lat="48.64767" lon="1.81709">
        <ele>145.8</ele>
        <time>2022-04-14T09:02:56Z</time>
      </trkpt>
      <trkpt lat="48.64777" lon="1.81707">
        <ele>146</ele>
        <time>2022-04-14T09:03:02Z</time>
      </trkpt>
      <trkpt lat="48.64787" lon="1.81706">
        <ele>146</ele>
        <time>2022-04-14T09:03:07Z</time>
      </trkpt>
      <trkpt lat="48.64796" lon="1.81704">
        <ele>146</ele>
        <time>2022-04-14T09:03:13Z</time>
      </trkpt>
      <trkpt lat="48.64803" lon="1.81713">
        <ele>146</ele>
        <time>2022-04-14T09:03:23Z</time>
      </trkpt>
      <trkpt lat="48.64811" lon="1.8172">
        <ele>146</ele>
        <time>2022-04-14T09:03:29Z</time>
      </trkpt>
      <trkpt lat="48.64822" lon="1.81722">
        <ele>146</ele>
        <time>2022-04-14T09:03:35Z</time>
      </trkpt>
      <trkpt lat="48.64832" lon="1.81721">
        <ele>146</ele>
        <time>2022-04-14T09:03:42Z</time>
      </trkpt>
      <trkpt lat="48.64843" lon="1.81721">
        <ele>145.9</ele>
        <time>2022-04-14T09:03:49Z</time>
      </trkpt>
      <trkpt lat="48.64852" lon="1.81721">
        <ele>145.9</ele>
        <time>2022-04-14T09:03:56Z</time>
      </trkpt>
      <trkpt lat="48.64861" lon="1.81719">
        <ele>145.9</ele>
        <time>2022-04-14T09:04:03Z</time>
      </trkpt>
      <trkpt lat="48.64871" lon="1.81719">
        <ele>145.9</ele>
        <time>2022-04-14T09:04:10Z</time>
      </trkpt>
      <trkpt lat="48.64881" lon="1.81718">
        <ele>146</ele>
        <time>2022-04-14T09:04:15Z</time>
      </trkpt>
      <trkpt lat="48.6489" lon="1.81719">
        <ele>146</ele>
        <time>2022-04-14T09:04:20Z</time>
      </trkpt>
      <trkpt lat="48.649" lon="1.81717">
        <ele>146</ele>
        <time>2022-04-14T09:04:26Z</time>
      </trkpt>
      <trkpt lat="48.6491" lon="1.81717">
        <ele>146</ele>
        <time>2022-04-14T09:04:32Z</time>
      </trkpt>
      <trkpt lat="48.64919" lon="1.81718">
        <ele>146</ele>
        <time>2022-04-14T09:04:38Z</time>
      </trkpt>
      <trkpt lat="48.64929" lon="1.81718">
        <ele>146</ele>
        <time>2022-04-14T09:04:45Z</time>
      </trkpt>
      <trkpt lat="48.64939" lon="1.81716">
        <ele>146</ele>
        <time>2022-04-14T09:04:52Z</time>
      </trkpt>
      <trkpt lat="48.64948" lon="1.81715">
        <ele>146</ele>
        <time>2022-04-14T09:04:58Z</time>
      </trkpt>
      <trkpt lat="48.64958" lon="1.81712">
        <ele>146.2</ele>
        <time>2022-04-14T09:05:05Z</time>
      </trkpt>
      <trkpt lat="48.64967" lon="1.81709">
        <ele>146.4</ele>
        <time>2022-04-14T09:05:12Z</time>
      </trkpt>
      <trkpt lat="48.64977" lon="1.81706">
        <ele>146.6</ele>
        <time>2022-04-14T09:05:19Z</time>
      </trkpt>
      <trkpt lat="48.64986" lon="1.81704">
        <ele>146.8</ele>
        <time>2022-04-14T09:05:28Z</time>
      </trkpt>
      <trkpt lat="48.64996" lon="1.81703">
        <ele>147</ele>
        <time>2022-04-14T09:06:48Z</time>
      </trkpt>
      <trkpt lat="48.65005" lon="1.817">
        <ele>147.2</ele>
        <time>2022-04-14T09:07:00Z</time>
      </trkpt>
      <trkpt lat="48.65015" lon="1.81701">
        <ele>147.5</ele>
        <time>2022-04-14T09:07:07Z</time>
      </trkpt>
      <trkpt lat="48.65024" lon="1.81699">
        <ele>147.9</ele>
        <time>2022-04-14T09:07:15Z</time>
      </trkpt>
      <trkpt lat="48.65033" lon="1.81696">
        <ele>148.2</ele>
        <time>2022-04-14T09:07:22Z</time>
      </trkpt>
      <trkpt lat="48.65042" lon="1.81696">
        <ele>148.5</ele>
        <time>2022-04-14T09:07:29Z</time>
      </trkpt>
      <trkpt lat="48.65051" lon="1.81697">
        <ele>148.9</ele>
        <time>2022-04-14T09:07:37Z</time>
      </trkpt>
      <trkpt lat="48.65061" lon="1.81696">
        <ele>149.2</ele>
        <time>2022-04-14T09:07:45Z</time>
      </trkpt>
      <trkpt lat="48.65071" lon="1.81694">
        <ele>149.6</ele>
        <time>2022-04-14T09:07:53Z</time>
      </trkpt>
      <trkpt lat="48.65081" lon="1.81691">
        <ele>149.9</ele>
        <time>2022-04-14T09:08:00Z</time>
      </trkpt>
      <trkpt lat="48.6509" lon="1.81689">
        <ele>150.5</ele>
        <time>2022-04-14T09:08:09Z</time>
      </trkpt>
      <trkpt lat="48.65099" lon="1.81688">
        <ele>151.3</ele>
        <time>2022-04-14T09:08:18Z</time>
      </trkpt>
      <trkpt lat="48.65109" lon="1.8169">
        <ele>152</ele>
        <time>2022-04-14T09:08:26Z</time>
      </trkpt>
      <trkpt lat="48.65118" lon="1.8169">
        <ele>152.2</ele>
        <time>2022-04-14T09:08:34Z</time>
      </trkpt>
      <trkpt lat="48.65128" lon="1.8169">
        <ele>152.3</ele>
        <time>2022-04-14T09:08:43Z</time>
      </trkpt>
      <trkpt lat="48.65138" lon="1.81689">
        <ele>152.4</ele>
        <time>2022-04-14T09:08:51Z</time>
      </trkpt>
      <trkpt lat="48.65147" lon="1.81689">
        <ele>152.7</ele>
        <time>2022-04-14T09:09:00Z</time>
      </trkpt>
      <trkpt lat="48.65156" lon="1.81686">
        <ele>153</ele>
        <time>2022-04-14T09:09:07Z</time>
      </trkpt>
      <trkpt lat="48.65165" lon="1.81683">
        <ele>153.4</ele>
        <time>2022-04-14T09:09:14Z</time>
      </trkpt>
      <trkpt lat="48.65175" lon="1.81679">
        <ele>153.7</ele>
        <time>2022-04-14T09:09:21Z</time>
      </trkpt>
      <trkpt lat="48.65185" lon="1.81677">
        <ele>153.9</ele>
        <time>2022-04-14T09:09:28Z</time>
      </trkpt>
      <trkpt lat="48.65194" lon="1.81676">
        <ele>154</ele>
        <time>2022-04-14T09:09:35Z</time>
      </trkpt>
      <trkpt lat="48.65204" lon="1.81675">
        <ele>154.3</ele>
        <time>2022-04-14T09:09:42Z</time>
      </trkpt>
      <trkpt lat="48.65213" lon="1.81673">
        <ele>154.7</ele>
        <time>2022-04-14T09:09:49Z</time>
      </trkpt>
      <trkpt lat="48.65224" lon="1.81672">
        <ele>155</ele>
        <time>2022-04-14T09:09:58Z</time>
      </trkpt>
      <trkpt lat="48.65233" lon="1.81672">
        <ele>155.1</ele>
        <time>2022-04-14T09:10:05Z</time>
      </trkpt>
      <trkpt lat="48.65243" lon="1.8167">
        <ele>155.1</ele>
        <time>2022-04-14T09:10:13Z</time>
      </trkpt>
      <trkpt lat="48.65252" lon="1.81671">
        <ele>155.2</ele>
        <time>2022-04-14T09:10:21Z</time>
      </trkpt>
      <trkpt lat="48.65262" lon="1.8167">
        <ele>155.5</ele>
        <time>2022-04-14T09:10:30Z</time>
      </trkpt>
      <trkpt lat="48.65271" lon="1.8167">
        <ele>155.8</ele>
        <time>2022-04-14T09:10:37Z</time>
      </trkpt>
      <trkpt lat="48.6528" lon="1.81668">
        <ele>156.1</ele>
        <time>2022-04-14T09:10:43Z</time>
      </trkpt>
      <trkpt lat="48.65289" lon="1.81667">
        <ele>156.4</ele>
        <time>2022-04-14T09:10:49Z</time>
      </trkpt>
      <trkpt lat="48.653" lon="1.81667">
        <ele>156.8</ele>
        <time>2022-04-14T09:10:56Z</time>
      </trkpt>
      <trkpt lat="48.6531" lon="1.81666">
        <ele>157.2</ele>
        <time>2022-04-14T09:11:03Z</time>
      </trkpt>
      <trkpt lat="48.65319" lon="1.81664">
        <ele>157.5</ele>
        <time>2022-04-14T09:11:09Z</time>
      </trkpt>
      <trkpt lat="48.65329" lon="1.81664">
        <ele>157.9</ele>
        <time>2022-04-14T09:11:15Z</time>
      </trkpt>
      <trkpt lat="48.65339" lon="1.81664">
        <ele>158</ele>
        <time>2022-04-14T09:11:22Z</time>
      </trkpt>
      <trkpt lat="48.65349" lon="1.81662">
        <ele>158.1</ele>
        <time>2022-04-14T09:11:29Z</time>
      </trkpt>
      <trkpt lat="48.65359" lon="1.8166">
        <ele>158.2</ele>
        <time>2022-04-14T09:11:36Z</time>
      </trkpt>
      <trkpt lat="48.6537" lon="1.81658">
        <ele>158.5</ele>
        <time>2022-04-14T09:11:43Z</time>
      </trkpt>
      <trkpt lat="48.65379" lon="1.81657">
        <ele>158.8</ele>
        <time>2022-04-14T09:11:49Z</time>
      </trkpt>
      <trkpt lat="48.65389" lon="1.81656">
        <ele>159</ele>
        <time>2022-04-14T09:11:56Z</time>
      </trkpt>
      <trkpt lat="48.65398" lon="1.81653">
        <ele>159.3</ele>
        <time>2022-04-14T09:12:03Z</time>
      </trkpt>
      <trkpt lat="48.65408" lon="1.81651">
        <ele>159.7</ele>
        <time>2022-04-14T09:12:09Z</time>
      </trkpt>
      <trkpt lat="48.65417" lon="1.8165">
        <ele>160</ele>
        <time>2022-04-14T09:12:15Z</time>
      </trkpt>
      <trkpt lat="48.65426" lon="1.81648">
        <ele>160.3</ele>
        <time>2022-04-14T09:12:22Z</time>
      </trkpt>
      <trkpt lat="48.65435" lon="1.81645">
        <ele>160.7</ele>
        <time>2022-04-14T09:12:29Z</time>
      </trkpt>
      <trkpt lat="48.65445" lon="1.81644">
        <ele>161</ele>
        <time>2022-04-14T09:12:36Z</time>
      </trkpt>
      <trkpt lat="48.65454" lon="1.81645">
        <ele>161.4</ele>
        <time>2022-04-14T09:12:44Z</time>
      </trkpt>
      <trkpt lat="48.65464" lon="1.81644">
        <ele>161.7</ele>
        <time>2022-04-14T09:13:00Z</time>
      </trkpt>
      <trkpt lat="48.65472" lon="1.8165">
        <ele>162</ele>
        <time>2022-04-14T09:13:25Z</time>
      </trkpt>
      <trkpt lat="48.6548" lon="1.81658">
        <ele>162</ele>
        <time>2022-04-14T09:13:39Z</time>
      </trkpt>
      <trkpt lat="48.65488" lon="1.81665">
        <ele>162</ele>
        <time>2022-04-14T09:13:47Z</time>
      </trkpt>
      <trkpt lat="48.65496" lon="1.81675">
        <ele>161.7</ele>
        <time>2022-04-14T09:13:54Z</time>
      </trkpt>
      <trkpt lat="48.655" lon="1.81687">
        <ele>161.3</ele>
        <time>2022-04-14T09:14:00Z</time>
      </trkpt>
      <trkpt lat="48.65506" lon="1.81699">
        <ele>161</ele>
        <time>2022-04-14T09:14:07Z</time>
      </trkpt>
      <trkpt lat="48.65511" lon="1.8171">
        <ele>160.8</ele>
        <time>2022-04-14T09:14:14Z</time>
      </trkpt>
      <trkpt lat="48.65516" lon="1.81722">
        <ele>160.4</ele>
        <time>2022-04-14T09:14:22Z</time>
      </trkpt>
      <trkpt lat="48.65522" lon="1.81734">
        <ele>160.2</ele>
        <time>2022-04-14T09:14:29Z</time>
      </trkpt>
      <trkpt lat="48.65527" lon="1.81746">
        <ele>160</ele>
        <time>2022-04-14T09:14:35Z</time>
      </trkpt>
      <trkpt lat="48.65533" lon="1.81757">
        <ele>159.6</ele>
        <time>2022-04-14T09:14:41Z</time>
      </trkpt>
      <trkpt lat="48.6554" lon="1.81767">
        <ele>159</ele>
        <time>2022-04-14T09:14:47Z</time>
      </trkpt>
      <trkpt lat="48.65545" lon="1.81778">
        <ele>158.4</ele>
        <time>2022-04-14T09:14:55Z</time>
      </trkpt>
      <trkpt lat="48.6555" lon="1.81792">
        <ele>158.1</ele>
        <time>2022-04-14T09:15:03Z</time>
      </trkpt>
      <trkpt lat="48.65557" lon="1.81802">
        <ele>158</ele>
        <time>2022-04-14T09:15:09Z</time>
      </trkpt>
      <trkpt lat="48.65563" lon="1.81813">
        <ele>158.2</ele>
        <time>2022-04-14T09:15:15Z</time>
      </trkpt>
      <trkpt lat="48.65569" lon="1.81824">
        <ele>158.2</ele>
        <time>2022-04-14T09:15:21Z</time>
      </trkpt>
      <trkpt lat="48.65575" lon="1.81835">
        <ele>157.9</ele>
        <time>2022-04-14T09:15:27Z</time>
      </trkpt>
      <trkpt lat="48.6558" lon="1.81848">
        <ele>157.5</ele>
        <time>2022-04-14T09:15:34Z</time>
      </trkpt>
      <trkpt lat="48.65586" lon="1.81861">
        <ele>157</ele>
        <time>2022-04-14T09:15:41Z</time>
      </trkpt>
      <trkpt lat="48.65591" lon="1.81872">
        <ele>156.6</ele>
        <time>2022-04-14T09:15:48Z</time>
      </trkpt>
      <trkpt lat="48.65597" lon="1.81884">
        <ele>156.2</ele>
        <time>2022-04-14T09:15:55Z</time>
      </trkpt>
      <trkpt lat="48.65603" lon="1.81895">
        <ele>155.8</ele>
        <time>2022-04-14T09:16:02Z</time>
      </trkpt>
      <trkpt lat="48.65609" lon="1.81906">
        <ele>155.4</ele>
        <time>2022-04-14T09:16:09Z</time>
      </trkpt>
      <trkpt lat="48.65614" lon="1.81919">
        <ele>154.8</ele>
        <time>2022-04-14T09:16:16Z</time>
      </trkpt>
      <trkpt lat="48.65619" lon="1.81932">
        <ele>154.2</ele>
        <time>2022-04-14T09:16:23Z</time>
      </trkpt>
      <trkpt lat="48.65625" lon="1.81942">
        <ele>153.6</ele>
        <time>2022-04-14T09:16:30Z</time>
      </trkpt>
      <trkpt lat="48.65632" lon="1.81954">
        <ele>153.2</ele>
        <time>2022-04-14T09:16:37Z</time>
      </trkpt>
      <trkpt lat="48.65637" lon="1.81966">
        <ele>153</ele>
        <time>2022-04-14T09:16:44Z</time>
      </trkpt>
      <trkpt lat="48.65643" lon="1.81977">
        <ele>152.8</ele>
        <time>2022-04-14T09:16:51Z</time>
      </trkpt>
      <trkpt lat="48.65649" lon="1.81989">
        <ele>152.4</ele>
        <time>2022-04-14T09:16:58Z</time>
      </trkpt>
      <trkpt lat="48.65655" lon="1.82">
        <ele>151.8</ele>
        <time>2022-04-14T09:17:05Z</time>
      </trkpt>
      <trkpt lat="48.6566" lon="1.82013">
        <ele>151.7</ele>
        <time>2022-04-14T09:17:12Z</time>
      </trkpt>
      <trkpt lat="48.65665" lon="1.82025">
        <ele>151.9</ele>
        <time>2022-04-14T09:17:19Z</time>
      </trkpt>
      <trkpt lat="48.65671" lon="1.82038">
        <ele>151.4</ele>
        <time>2022-04-14T09:17:27Z</time>
      </trkpt>
      <trkpt lat="48.65674" lon="1.82051">
        <ele>150.9</ele>
        <time>2022-04-14T09:17:37Z</time>
      </trkpt>
      <trkpt lat="48.65674" lon="1.82065">
        <ele>150.8</ele>
        <time>2022-04-14T09:17:45Z</time>
      </trkpt>
      <trkpt lat="48.65681" lon="1.82075">
        <ele>150.9</ele>
        <time>2022-04-14T09:17:55Z</time>
      </trkpt>
      <trkpt lat="48.6569" lon="1.82078">
        <ele>150.8</ele>
        <time>2022-04-14T09:18:06Z</time>
      </trkpt>
      <trkpt lat="48.65699" lon="1.8208">
        <ele>150.9</ele>
        <time>2022-04-14T09:18:14Z</time>
      </trkpt>
      <trkpt lat="48.65709" lon="1.82077">
        <ele>150.8</ele>
        <time>2022-04-14T09:18:22Z</time>
      </trkpt>
      <trkpt lat="48.65719" lon="1.82076">
        <ele>150.7</ele>
        <time>2022-04-14T09:18:31Z</time>
      </trkpt>
      <trkpt lat="48.65728" lon="1.82075">
        <ele>150.7</ele>
        <time>2022-04-14T09:18:39Z</time>
      </trkpt>
      <trkpt lat="48.65737" lon="1.82073">
        <ele>150.8</ele>
        <time>2022-04-14T09:18:48Z</time>
      </trkpt>
      <trkpt lat="48.65747" lon="1.8207">
        <ele>150.9</ele>
        <time>2022-04-14T09:18:58Z</time>
      </trkpt>
      <trkpt lat="48.65756" lon="1.82069">
        <ele>151.1</ele>
        <time>2022-04-14T09:19:07Z</time>
      </trkpt>
      <trkpt lat="48.65763" lon="1.82059">
        <ele>151.4</ele>
        <time>2022-04-14T09:19:20Z</time>
      </trkpt>
      <trkpt lat="48.65766" lon="1.82046">
        <ele>151.4</ele>
        <time>2022-04-14T09:19:46Z</time>
      </trkpt>
      <trkpt lat="48.65775" lon="1.82041">
        <ele>151.4</ele>
        <time>2022-04-14T09:20:26Z</time>
      </trkpt>
      <trkpt lat="48.65781" lon="1.8203">
        <ele>151.2</ele>
        <time>2022-04-14T09:20:35Z</time>
      </trkpt>
    </trkseg>
  </trk>
</gpx>